<?xml version="1.0" encoding="UTF-8" standalone="no" ?>
<gpx xmlns="http://www.topografix.com/GPX/1/1" xmlns:xsi="http://www.w3.org/2001/XMLSchema-instance" xsi:schemaLocation="http://www.topografix.com/GPX/1/1 http://www.topografix.com/GPX/1/1/gpx.xsd" version="1.1" creator="VisuGPX - https://www.visugpx.com">
  <metadata>
    <name>st jacques</name>
    <desc><![CDATA[st jacques
]]></desc>
  </metadata>
  <trk>
    <name><![CDATA[Move]]></name>
    <trkseg>
      <trkpt lat="45.55585" lon="6.68395">
        <ele>838.47638368599</ele>
        <time>2013-08-16T05:59:34.430Z</time>
      </trkpt>
      <trkpt lat="45.55574" lon="6.68417">
        <ele>841.18299904</ele>
        <time>2013-08-16T05:59:43.410Z</time>
      </trkpt>
      <trkpt lat="45.55566" lon="6.68437">
        <ele>843.88299904</ele>
        <time>2013-08-16T05:59:52.410Z</time>
      </trkpt>
      <trkpt lat="45.5556" lon="6.68461">
        <ele>845.928</ele>
        <time>2013-08-16T06:00:02.440Z</time>
      </trkpt>
      <trkpt lat="45.5555" lon="6.68485">
        <ele>846.97299968</ele>
        <time>2013-08-16T06:00:12.530Z</time>
      </trkpt>
      <trkpt lat="45.55538" lon="6.68505">
        <ele>850.07099904</ele>
        <time>2013-08-16T06:00:26.370Z</time>
      </trkpt>
      <trkpt lat="45.55523" lon="6.68523">
        <ele>853.692</ele>
        <time>2013-08-16T06:00:38.440Z</time>
      </trkpt>
      <trkpt lat="45.55507" lon="6.6854">
        <ele>856.72600064</ele>
        <time>2013-08-16T06:00:51.430Z</time>
      </trkpt>
      <trkpt lat="45.55496" lon="6.68561">
        <ele>859.90599936</ele>
        <time>2013-08-16T06:01:07.330Z</time>
      </trkpt>
      <trkpt lat="45.55482" lon="6.68577">
        <ele>862.32600064</ele>
        <time>2013-08-16T06:01:19.430Z</time>
      </trkpt>
      <trkpt lat="45.55467" lon="6.68594">
        <ele>865.32600064</ele>
        <time>2013-08-16T06:01:34.430Z</time>
      </trkpt>
      <trkpt lat="45.55452" lon="6.68608">
        <ele>868.30200064</ele>
        <time>2013-08-16T06:01:49.310Z</time>
      </trkpt>
      <trkpt lat="45.55448" lon="6.68633">
        <ele>872.94599936</ele>
        <time>2013-08-16T06:02:07.530Z</time>
      </trkpt>
      <trkpt lat="45.55442" lon="6.68658">
        <ele>875.93631838768</ele>
        <time>2013-08-16T06:02:22.530Z</time>
      </trkpt>
      <trkpt lat="45.55434" lon="6.68681">
        <ele>879.45300096</ele>
        <time>2013-08-16T06:02:34.310Z</time>
      </trkpt>
      <trkpt lat="45.55429" lon="6.68707">
        <ele>883.52600064</ele>
        <time>2013-08-16T06:02:50.430Z</time>
      </trkpt>
      <trkpt lat="45.55419" lon="6.68685">
        <ele>892.34599936</ele>
        <time>2013-08-16T06:03:29.530Z</time>
      </trkpt>
      <trkpt lat="45.55407" lon="6.68665">
        <ele>900.52199936</ele>
        <time>2013-08-16T06:04:00.410Z</time>
      </trkpt>
      <trkpt lat="45.55398" lon="6.68687">
        <ele>907.72600064</ele>
        <time>2013-08-16T06:04:31.430Z</time>
      </trkpt>
      <trkpt lat="45.55399" lon="6.68713">
        <ele>910.71899904</ele>
        <time>2013-08-16T06:04:48.530Z</time>
      </trkpt>
      <trkpt lat="45.5541" lon="6.68733">
        <ele>913.90200064</ele>
        <time>2013-08-16T06:05:02.310Z</time>
      </trkpt>
      <trkpt lat="45.55394" lon="6.68747">
        <ele>915.11256277787</ele>
        <time>2013-08-16T06:05:13.410Z</time>
      </trkpt>
      <trkpt lat="45.5538" lon="6.6873">
        <ele>917.92600064</ele>
        <time>2013-08-16T06:05:27.430Z</time>
      </trkpt>
      <trkpt lat="45.5538" lon="6.68758">
        <ele>923.52199936</ele>
        <time>2013-08-16T06:06:05.410Z</time>
      </trkpt>
      <trkpt lat="45.55382" lon="6.68783">
        <ele>926.12199936</ele>
        <time>2013-08-16T06:06:18.410Z</time>
      </trkpt>
      <trkpt lat="45.55378" lon="6.68809">
        <ele>930.15300096</ele>
        <time>2013-08-16T06:06:33.310Z</time>
      </trkpt>
      <trkpt lat="45.55382" lon="6.68836">
        <ele>933.92600064</ele>
        <time>2013-08-16T06:06:47.430Z</time>
      </trkpt>
      <trkpt lat="45.55381" lon="6.68862">
        <ele>935.86099968</ele>
        <time>2013-08-16T06:07:01.410Z</time>
      </trkpt>
      <trkpt lat="45.55384" lon="6.6889">
        <ele>939.08900096</ele>
        <time>2013-08-16T06:07:16.430Z</time>
      </trkpt>
      <trkpt lat="45.55377" lon="6.68914">
        <ele>943.65200128</ele>
        <time>2013-08-16T06:07:29.430Z</time>
      </trkpt>
      <trkpt lat="45.55363" lon="6.68933">
        <ele>945</ele>
        <time>2013-08-16T06:07:41.430Z</time>
      </trkpt>
      <trkpt lat="45.55365" lon="6.68959">
        <ele>946.92600064</ele>
        <time>2013-08-16T06:07:52.430Z</time>
      </trkpt>
      <trkpt lat="45.55369" lon="6.68988">
        <ele>947</ele>
        <time>2013-08-16T06:08:00.430Z</time>
      </trkpt>
      <trkpt lat="45.55358" lon="6.6901">
        <ele>946.64020047752</ele>
        <time>2013-08-16T06:08:06.430Z</time>
      </trkpt>
      <trkpt lat="45.55351" lon="6.69029">
        <ele>947.26039652144</ele>
        <time>2013-08-16T06:08:55.430Z</time>
      </trkpt>
      <trkpt lat="45.55338" lon="6.69048">
        <ele>948.12727329146</ele>
        <time>2013-08-16T06:09:03.530Z</time>
      </trkpt>
      <trkpt lat="45.55327" lon="6.69071">
        <ele>949.94545393425</ele>
        <time>2013-08-16T06:09:12.530Z</time>
      </trkpt>
      <trkpt lat="45.55313" lon="6.69088">
        <ele>951.74599936</ele>
        <time>2013-08-16T06:09:21.530Z</time>
      </trkpt>
      <trkpt lat="45.55303" lon="6.69111">
        <ele>954.48900096</ele>
        <time>2013-08-16T06:09:34.430Z</time>
      </trkpt>
      <trkpt lat="45.55298" lon="6.69135">
        <ele>957.17299968</ele>
        <time>2013-08-16T06:09:44.530Z</time>
      </trkpt>
      <trkpt lat="45.55303" lon="6.69147">
        <ele>957.87299968</ele>
        <time>2013-08-16T06:09:51.530Z</time>
      </trkpt>
      <trkpt lat="45.55317" lon="6.69165">
        <ele>961.92600064</ele>
        <time>2013-08-16T06:10:12.430Z</time>
      </trkpt>
      <trkpt lat="45.5532" lon="6.69192">
        <ele>966.85200128</ele>
        <time>2013-08-16T06:10:27.430Z</time>
      </trkpt>
      <trkpt lat="45.5531" lon="6.69216">
        <ele>970.74599936</ele>
        <time>2013-08-16T06:10:41.530Z</time>
      </trkpt>
      <trkpt lat="45.55299" lon="6.69237">
        <ele>972.59497468302</ele>
        <time>2013-08-16T06:10:54.330Z</time>
      </trkpt>
      <trkpt lat="45.55283" lon="6.69254">
        <ele>976.48900096</ele>
        <time>2013-08-16T06:11:04.430Z</time>
      </trkpt>
      <trkpt lat="45.55266" lon="6.69266">
        <ele>979.312</ele>
        <time>2013-08-16T06:11:14.360Z</time>
      </trkpt>
      <trkpt lat="45.55251" lon="6.69281">
        <ele>982.09799936</ele>
        <time>2013-08-16T06:11:28.290Z</time>
      </trkpt>
      <trkpt lat="45.55236" lon="6.69294">
        <ele>984.32600064</ele>
        <time>2013-08-16T06:11:39.430Z</time>
      </trkpt>
      <trkpt lat="45.55222" lon="6.69312">
        <ele>987.88900096</ele>
        <time>2013-08-16T06:11:52.430Z</time>
      </trkpt>
      <trkpt lat="45.55209" lon="6.69332">
        <ele>990.50599936</ele>
        <time>2013-08-16T06:12:05.330Z</time>
      </trkpt>
      <trkpt lat="45.55199" lon="6.69355">
        <ele>994.78900096</ele>
        <time>2013-08-16T06:12:25.430Z</time>
      </trkpt>
      <trkpt lat="45.55182" lon="6.69367">
        <ele>998.10200064</ele>
        <time>2013-08-16T06:12:38.310Z</time>
      </trkpt>
      <trkpt lat="45.55169" lon="6.69387">
        <ele>999.46023859388</ele>
        <time>2013-08-16T06:12:47.430Z</time>
      </trkpt>
      <trkpt lat="45.55158" lon="6.69409">
        <ele>1006.81199872</ele>
        <time>2013-08-16T06:13:22.330Z</time>
      </trkpt>
      <trkpt lat="45.55172" lon="6.69427">
        <ele>1024.5245256378</ele>
        <time>2013-08-16T06:14:45.430Z</time>
      </trkpt>
      <trkpt lat="45.55192" lon="6.69433">
        <ele>1027.10599936</ele>
        <time>2013-08-16T06:14:58.330Z</time>
      </trkpt>
      <trkpt lat="45.55212" lon="6.69435">
        <ele>1039.00400128</ele>
        <time>2013-08-16T06:15:35.310Z</time>
      </trkpt>
      <trkpt lat="45.55225" lon="6.69454">
        <ele>1046.98900096</ele>
        <time>2013-08-16T06:15:59.430Z</time>
      </trkpt>
      <trkpt lat="45.55244" lon="6.69452">
        <ele>1050.292</ele>
        <time>2013-08-16T06:16:10.440Z</time>
      </trkpt>
      <trkpt lat="45.55263" lon="6.69457">
        <ele>1051.37299968</ele>
        <time>2013-08-16T06:16:16.530Z</time>
      </trkpt>
      <trkpt lat="45.55274" lon="6.69479">
        <ele>1053.9164191575</ele>
        <time>2013-08-16T06:16:32.430Z</time>
      </trkpt>
      <trkpt lat="45.55292" lon="6.6948">
        <ele>1061.25200128</ele>
        <time>2013-08-16T06:16:53.430Z</time>
      </trkpt>
      <trkpt lat="45.55299" lon="6.69505">
        <ele>1066.69200128</ele>
        <time>2013-08-16T06:17:11.260Z</time>
      </trkpt>
      <trkpt lat="45.55291" lon="6.69528">
        <ele>1069.08900096</ele>
        <time>2013-08-16T06:17:26.430Z</time>
      </trkpt>
      <trkpt lat="45.55277" lon="6.69546">
        <ele>1075.16199936</ele>
        <time>2013-08-16T06:17:44.420Z</time>
      </trkpt>
      <trkpt lat="45.55264" lon="6.69566">
        <ele>1078.90699904</ele>
        <time>2013-08-16T06:18:02.490Z</time>
      </trkpt>
      <trkpt lat="45.55265" lon="6.6959">
        <ele>1085.02199808</ele>
        <time>2013-08-16T06:18:29.540Z</time>
      </trkpt>
      <trkpt lat="45.5528" lon="6.69601">
        <ele>1088.30599936</ele>
        <time>2013-08-16T06:18:44.330Z</time>
      </trkpt>
      <trkpt lat="45.55294" lon="6.69609">
        <ele>1095.14599936</ele>
        <time>2013-08-16T06:19:03.530Z</time>
      </trkpt>
      <trkpt lat="45.55308" lon="6.69604">
        <ele>1098.9654159684</ele>
        <time>2013-08-16T06:19:19.430Z</time>
      </trkpt>
      <trkpt lat="45.55318" lon="6.69593">
        <ele>1105.97700096</ele>
        <time>2013-08-16T06:19:39.390Z</time>
      </trkpt>
      <trkpt lat="45.55331" lon="6.69613">
        <ele>1115.92199936</ele>
        <time>2013-08-16T06:20:22.410Z</time>
      </trkpt>
      <trkpt lat="45.55341" lon="6.69635">
        <ele>1122.58900096</ele>
        <time>2013-08-16T06:20:41.430Z</time>
      </trkpt>
      <trkpt lat="45.5534" lon="6.69661">
        <ele>1129.32600064</ele>
        <time>2013-08-16T06:21:04.430Z</time>
      </trkpt>
      <trkpt lat="45.55333" lon="6.69685">
        <ele>1134.05200128</ele>
        <time>2013-08-16T06:21:25.430Z</time>
      </trkpt>
      <trkpt lat="45.55321" lon="6.69704">
        <ele>1139.30599936</ele>
        <time>2013-08-16T06:21:44.330Z</time>
      </trkpt>
      <trkpt lat="45.55304" lon="6.69717">
        <ele>1140.74899968</ele>
        <time>2013-08-16T06:21:55.310Z</time>
      </trkpt>
      <trkpt lat="45.55287" lon="6.69725">
        <ele>1140.0587068048</ele>
        <time>2013-08-16T06:22:03.390Z</time>
      </trkpt>
      <trkpt lat="45.55269" lon="6.69733">
        <ele>1140.954229478</ele>
        <time>2013-08-16T06:22:12.390Z</time>
      </trkpt>
      <trkpt lat="45.5525" lon="6.69736">
        <ele>1141.8502516261</ele>
        <time>2013-08-16T06:22:21.310Z</time>
      </trkpt>
      <trkpt lat="45.55232" lon="6.69747">
        <ele>1142.12199936</ele>
        <time>2013-08-16T06:22:33.410Z</time>
      </trkpt>
      <trkpt lat="45.55212" lon="6.69741">
        <ele>1143.52199936</ele>
        <time>2013-08-16T06:22:40.410Z</time>
      </trkpt>
      <trkpt lat="45.55193" lon="6.69739">
        <ele>1144.5604394199</ele>
        <time>2013-08-16T06:22:48.410Z</time>
      </trkpt>
      <trkpt lat="45.55173" lon="6.69744">
        <ele>1145</ele>
        <time>2013-08-16T06:22:55.430Z</time>
      </trkpt>
      <trkpt lat="45.55154" lon="6.69751">
        <ele>1145</ele>
        <time>2013-08-16T06:23:03.330Z</time>
      </trkpt>
      <trkpt lat="45.55135" lon="6.69755">
        <ele>1145</ele>
        <time>2013-08-16T06:23:10.430Z</time>
      </trkpt>
      <trkpt lat="45.55117" lon="6.69762">
        <ele>1145.58700032</ele>
        <time>2013-08-16T06:23:18.670Z</time>
      </trkpt>
      <trkpt lat="45.55101" lon="6.69771">
        <ele>1146</ele>
        <time>2013-08-16T06:23:26.310Z</time>
      </trkpt>
      <trkpt lat="45.55084" lon="6.69783">
        <ele>1145.62700032</ele>
        <time>2013-08-16T06:23:36.530Z</time>
      </trkpt>
      <trkpt lat="45.55066" lon="6.69789">
        <ele>1145</ele>
        <time>2013-08-16T06:23:45.430Z</time>
      </trkpt>
      <trkpt lat="45.55047" lon="6.69796">
        <ele>1145</ele>
        <time>2013-08-16T06:23:51.430Z</time>
      </trkpt>
      <trkpt lat="45.55028" lon="6.69802">
        <ele>1145.6344502613</ele>
        <time>2013-08-16T06:23:59.430Z</time>
      </trkpt>
      <trkpt lat="45.55015" lon="6.69807">
        <ele>1146</ele>
        <time>2013-08-16T06:24:07.430Z</time>
      </trkpt>
      <trkpt lat="45.55" lon="6.69817">
        <ele>1146.7700098821</ele>
        <time>2013-08-16T06:24:20.530Z</time>
      </trkpt>
      <trkpt lat="45.54984" lon="6.69832">
        <ele>1147</ele>
        <time>2013-08-16T06:24:35.430Z</time>
      </trkpt>
      <trkpt lat="45.54973" lon="6.69851">
        <ele>1147.95100032</ele>
        <time>2013-08-16T06:24:52.310Z</time>
      </trkpt>
      <trkpt lat="45.54956" lon="6.69863">
        <ele>1149.3039108699</ele>
        <time>2013-08-16T06:25:09.330Z</time>
      </trkpt>
      <trkpt lat="45.5494" lon="6.69877">
        <ele>1150.08999936</ele>
        <time>2013-08-16T06:25:23.250Z</time>
      </trkpt>
      <trkpt lat="45.54926" lon="6.69881">
        <ele>1151.88999936</ele>
        <time>2013-08-16T06:25:32.250Z</time>
      </trkpt>
      <trkpt lat="45.54913" lon="6.69885">
        <ele>1152.56300032</ele>
        <time>2013-08-16T06:25:38.430Z</time>
      </trkpt>
      <trkpt lat="45.54896" lon="6.69889">
        <ele>1153.45100032</ele>
        <time>2013-08-16T06:25:47.310Z</time>
      </trkpt>
      <trkpt lat="45.54871" lon="6.69895">
        <ele>1159.8223099142</ele>
        <time>2013-08-16T06:26:22.330Z</time>
      </trkpt>
      <trkpt lat="45.54852" lon="6.69892">
        <ele>1160.24700032</ele>
        <time>2013-08-16T06:26:40.330Z</time>
      </trkpt>
      <trkpt lat="45.54833" lon="6.69892">
        <ele>1162.30599936</ele>
        <time>2013-08-16T06:26:59.330Z</time>
      </trkpt>
      <trkpt lat="45.54825" lon="6.6991">
        <ele>1171.80400128</ele>
        <time>2013-08-16T06:27:32.310Z</time>
      </trkpt>
      <trkpt lat="45.54834" lon="6.69928">
        <ele>1176.354933805</ele>
        <time>2013-08-16T06:27:47.330Z</time>
      </trkpt>
      <trkpt lat="45.54825" lon="6.69914">
        <ele>1178.6619861704</ele>
        <time>2013-08-16T06:27:59.430Z</time>
      </trkpt>
      <trkpt lat="45.54813" lon="6.69906">
        <ele>1187.78900096</ele>
        <time>2013-08-16T06:28:25.430Z</time>
      </trkpt>
      <trkpt lat="45.54802" lon="6.69905">
        <ele>1190.72600064</ele>
        <time>2013-08-16T06:28:36.430Z</time>
      </trkpt>
      <trkpt lat="45.54784" lon="6.69898">
        <ele>1195.98900096</ele>
        <time>2013-08-16T06:28:59.430Z</time>
      </trkpt>
      <trkpt lat="45.54769" lon="6.69913">
        <ele>1206.304</ele>
        <time>2013-08-16T06:29:44.320Z</time>
      </trkpt>
      <trkpt lat="45.54766" lon="6.69939">
        <ele>1209.66199808</ele>
        <time>2013-08-16T06:29:58.340Z</time>
      </trkpt>
      <trkpt lat="45.54771" lon="6.69964">
        <ele>1211.564</ele>
        <time>2013-08-16T06:30:08.440Z</time>
      </trkpt>
      <trkpt lat="45.54773" lon="6.69987">
        <ele>1213.096</ele>
        <time>2013-08-16T06:30:18.280Z</time>
      </trkpt>
      <trkpt lat="45.54773" lon="6.70002">
        <ele>1214.52600064</ele>
        <time>2013-08-16T06:30:25.430Z</time>
      </trkpt>
      <trkpt lat="45.54762" lon="6.6998">
        <ele>1220.35899904</ele>
        <time>2013-08-16T06:30:57.330Z</time>
      </trkpt>
      <trkpt lat="45.54744" lon="6.69982">
        <ele>1231.05200128</ele>
        <time>2013-08-16T06:31:30.430Z</time>
      </trkpt>
      <trkpt lat="45.54726" lon="6.69976">
        <ele>1239.88900096</ele>
        <time>2013-08-16T06:32:02.430Z</time>
      </trkpt>
      <trkpt lat="45.54709" lon="6.69968">
        <ele>1248.70200064</ele>
        <time>2013-08-16T06:32:41.310Z</time>
      </trkpt>
      <trkpt lat="45.54697" lon="6.69987">
        <ele>1260.8746287362</ele>
        <time>2013-08-16T06:33:22.430Z</time>
      </trkpt>
      <trkpt lat="45.54679" lon="6.69993">
        <ele>1270.3007003559</ele>
        <time>2013-08-16T06:33:59.310Z</time>
      </trkpt>
      <trkpt lat="45.54661" lon="6.69998">
        <ele>1279.85200128</ele>
        <time>2013-08-16T06:34:32.430Z</time>
      </trkpt>
      <trkpt lat="45.54644" lon="6.70007">
        <ele>1294.41899904</ele>
        <time>2013-08-16T06:35:17.530Z</time>
      </trkpt>
      <trkpt lat="45.54641" lon="6.70033">
        <ele>1298.93699968</ele>
        <time>2013-08-16T06:35:43.430Z</time>
      </trkpt>
      <trkpt lat="45.54646" lon="6.70059">
        <ele>1297.07399936</ele>
        <time>2013-08-16T06:35:57.430Z</time>
      </trkpt>
      <trkpt lat="45.54653" lon="6.70087">
        <ele>1296.3456538168</ele>
        <time>2013-08-16T06:36:04.530Z</time>
      </trkpt>
      <trkpt lat="45.54652" lon="6.70114">
        <ele>1297.9240771785</ele>
        <time>2013-08-16T06:36:12.430Z</time>
      </trkpt>
      <trkpt lat="45.54643" lon="6.7013">
        <ele>1297.07968</ele>
        <time>2013-08-16T06:36:17.430Z</time>
      </trkpt>
      <trkpt lat="45.54635" lon="6.7015">
        <ele>1295.6402004775</ele>
        <time>2013-08-16T06:36:26.430Z</time>
      </trkpt>
      <trkpt lat="45.54626" lon="6.70171">
        <ele>1295.52199936</ele>
        <time>2013-08-16T06:36:35.410Z</time>
      </trkpt>
      <trkpt lat="45.54623" lon="6.70198">
        <ele>1298.11800064</ele>
        <time>2013-08-16T06:36:48.390Z</time>
      </trkpt>
      <trkpt lat="45.54622" lon="6.70224">
        <ele>1302.2596742911</ele>
        <time>2013-08-16T06:37:05.530Z</time>
      </trkpt>
      <trkpt lat="45.54623" lon="6.7025">
        <ele>1304.14599936</ele>
        <time>2013-08-16T06:37:18.530Z</time>
      </trkpt>
      <trkpt lat="45.54623" lon="6.70271">
        <ele>1305.35500032</ele>
        <time>2013-08-16T06:37:26.350Z</time>
      </trkpt>
      <trkpt lat="45.54622" lon="6.70283">
        <ele>1306.09200128</ele>
        <time>2013-08-16T06:37:33.260Z</time>
      </trkpt>
      <trkpt lat="45.54621" lon="6.70309">
        <ele>1307.89199872</ele>
        <time>2013-08-16T06:37:42.260Z</time>
      </trkpt>
      <trkpt lat="45.54629" lon="6.70331">
        <ele>1308.66899968</ele>
        <time>2013-08-16T06:37:49.490Z</time>
      </trkpt>
      <trkpt lat="45.54635" lon="6.70355">
        <ele>1309</ele>
        <time>2013-08-16T06:37:58.310Z</time>
      </trkpt>
      <trkpt lat="45.54634" lon="6.70381">
        <ele>1310</ele>
        <time>2013-08-16T06:38:41.430Z</time>
      </trkpt>
      <trkpt lat="45.54633" lon="6.70406">
        <ele>1311.30599936</ele>
        <time>2013-08-16T06:38:54.330Z</time>
      </trkpt>
      <trkpt lat="45.54636" lon="6.70429">
        <ele>1313</ele>
        <time>2013-08-16T06:39:29.410Z</time>
      </trkpt>
      <trkpt lat="45.54638" lon="6.7043">
        <ele>1313</ele>
        <time>2013-08-16T06:39:35.690Z</time>
      </trkpt>
      <trkpt lat="45.54397" lon="6.7069">
        <ele>1491.9979980901</ele>
        <time>2013-08-16T06:54:29.640Z</time>
      </trkpt>
      <trkpt lat="45.54402" lon="6.70703">
        <ele>1496</ele>
        <time>2013-08-16T06:54:47.530Z</time>
      </trkpt>
      <trkpt lat="45.54395" lon="6.70718">
        <ele>1497.92199936</ele>
        <time>2013-08-16T06:54:58.410Z</time>
      </trkpt>
      <trkpt lat="45.54378" lon="6.70729">
        <ele>1500</ele>
        <time>2013-08-16T06:55:16.290Z</time>
      </trkpt>
      <trkpt lat="45.54371" lon="6.70751">
        <ele>1502.264</ele>
        <time>2013-08-16T06:55:31.440Z</time>
      </trkpt>
      <trkpt lat="45.54363" lon="6.70774">
        <ele>1505.14599936</ele>
        <time>2013-08-16T06:55:49.530Z</time>
      </trkpt>
      <trkpt lat="45.54353" lon="6.70791">
        <ele>1509.19599872</ele>
        <time>2013-08-16T06:56:04.290Z</time>
      </trkpt>
      <trkpt lat="45.54342" lon="6.70804">
        <ele>1511.65100032</ele>
        <time>2013-08-16T06:56:15.310Z</time>
      </trkpt>
      <trkpt lat="45.54331" lon="6.70813">
        <ele>1514.9890569517</ele>
        <time>2013-08-16T06:56:26.310Z</time>
      </trkpt>
      <trkpt lat="45.5432" lon="6.70828">
        <ele>1521.1248761238</ele>
        <time>2013-08-16T06:56:54.430Z</time>
      </trkpt>
      <trkpt lat="45.54308" lon="6.70842">
        <ele>1523.121120762</ele>
        <time>2013-08-16T06:57:04.410Z</time>
      </trkpt>
      <trkpt lat="45.54295" lon="6.70853">
        <ele>1525.72199936</ele>
        <time>2013-08-16T06:57:17.410Z</time>
      </trkpt>
      <trkpt lat="45.54283" lon="6.70867">
        <ele>1527.33799936</ele>
        <time>2013-08-16T06:57:30.490Z</time>
      </trkpt>
      <trkpt lat="45.54268" lon="6.70882">
        <ele>1530.50799872</ele>
        <time>2013-08-16T06:57:46.340Z</time>
      </trkpt>
      <trkpt lat="45.54262" lon="6.70903">
        <ele>1531.864</ele>
        <time>2013-08-16T06:57:57.440Z</time>
      </trkpt>
      <trkpt lat="45.54246" lon="6.70911">
        <ele>1533.66099968</ele>
        <time>2013-08-16T06:58:15.410Z</time>
      </trkpt>
      <trkpt lat="45.5423" lon="6.70918">
        <ele>1539.17099776</ele>
        <time>2013-08-16T06:58:33.330Z</time>
      </trkpt>
      <trkpt lat="45.54225" lon="6.70896">
        <ele>1549.30599936</ele>
        <time>2013-08-16T06:59:05.330Z</time>
      </trkpt>
      <trkpt lat="45.54228" lon="6.70873">
        <ele>1552.7055280545</ele>
        <time>2013-08-16T06:59:22.360Z</time>
      </trkpt>
      <trkpt lat="45.54236" lon="6.7085">
        <ele>1554.46099968</ele>
        <time>2013-08-16T06:59:33.410Z</time>
      </trkpt>
      <trkpt lat="45.5423" lon="6.70833">
        <ele>1555.72600064</ele>
        <time>2013-08-16T06:59:42.430Z</time>
      </trkpt>
      <trkpt lat="45.54223" lon="6.70811">
        <ele>1557.8049984</ele>
        <time>2013-08-16T06:59:50.410Z</time>
      </trkpt>
      <trkpt lat="45.54224" lon="6.70789">
        <ele>1562.48299904</ele>
        <time>2013-08-16T07:00:00.410Z</time>
      </trkpt>
      <trkpt lat="45.54219" lon="6.70767">
        <ele>1563.55399936</ele>
        <time>2013-08-16T07:00:23.260Z</time>
      </trkpt>
      <trkpt lat="45.54225" lon="6.70744">
        <ele>1565.7550016</ele>
        <time>2013-08-16T07:00:34.310Z</time>
      </trkpt>
      <trkpt lat="45.54226" lon="6.70719">
        <ele>1570.356</ele>
        <time>2013-08-16T07:00:52.360Z</time>
      </trkpt>
      <trkpt lat="45.5422" lon="6.70701">
        <ele>1571.32199936</ele>
        <time>2013-08-16T07:01:00.410Z</time>
      </trkpt>
      <trkpt lat="45.54218" lon="6.7068">
        <ele>1575.14599936</ele>
        <time>2013-08-16T07:01:19.530Z</time>
      </trkpt>
      <trkpt lat="45.54212" lon="6.70664">
        <ele>1577.32199936</ele>
        <time>2013-08-16T07:01:30.410Z</time>
      </trkpt>
      <trkpt lat="45.54197" lon="6.70662">
        <ele>1579.46300032</ele>
        <time>2013-08-16T07:01:43.430Z</time>
      </trkpt>
      <trkpt lat="45.54202" lon="6.70675">
        <ele>1587.0482411905</ele>
        <time>2013-08-16T07:02:09.330Z</time>
      </trkpt>
      <trkpt lat="45.542" lon="6.70693">
        <ele>1588.28600064</ele>
        <time>2013-08-16T07:02:20.230Z</time>
      </trkpt>
      <trkpt lat="45.54188" lon="6.70707">
        <ele>1591.65899904</ele>
        <time>2013-08-16T07:02:34.330Z</time>
      </trkpt>
      <trkpt lat="45.54175" lon="6.70725">
        <ele>1594.92600064</ele>
        <time>2013-08-16T07:02:48.430Z</time>
      </trkpt>
      <trkpt lat="45.54165" lon="6.70749">
        <ele>1597.17299968</ele>
        <time>2013-08-16T07:03:00.530Z</time>
      </trkpt>
      <trkpt lat="45.54157" lon="6.70774">
        <ele>1599.32199936</ele>
        <time>2013-08-16T07:03:15.410Z</time>
      </trkpt>
      <trkpt lat="45.54149" lon="6.70797">
        <ele>1604</ele>
        <time>2013-08-16T07:03:33.430Z</time>
      </trkpt>
      <trkpt lat="45.54143" lon="6.70823">
        <ele>1606.2700032</ele>
        <time>2013-08-16T07:03:49.340Z</time>
      </trkpt>
      <trkpt lat="45.54137" lon="6.70847">
        <ele>1611</ele>
        <time>2013-08-16T07:04:04.310Z</time>
      </trkpt>
      <trkpt lat="45.54137" lon="6.70871">
        <ele>1613.31799808</ele>
        <time>2013-08-16T07:04:19.330Z</time>
      </trkpt>
      <trkpt lat="45.54138" lon="6.70892">
        <ele>1619.75100032</ele>
        <time>2013-08-16T07:04:36.310Z</time>
      </trkpt>
      <trkpt lat="45.54135" lon="6.70919">
        <ele>1619.316418648</ele>
        <time>2013-08-16T07:04:50.390Z</time>
      </trkpt>
      <trkpt lat="45.54124" lon="6.709">
        <ele>1626.05899904</ele>
        <time>2013-08-16T07:05:22.330Z</time>
      </trkpt>
      <trkpt lat="45.54114" lon="6.70885">
        <ele>1628.46300032</ele>
        <time>2013-08-16T07:05:33.430Z</time>
      </trkpt>
      <trkpt lat="45.54101" lon="6.70864">
        <ele>1631.488</ele>
        <time>2013-08-16T07:05:51.240Z</time>
      </trkpt>
      <trkpt lat="45.5409" lon="6.70845">
        <ele>1635.7550016</ele>
        <time>2013-08-16T07:06:04.310Z</time>
      </trkpt>
      <trkpt lat="45.54083" lon="6.7082">
        <ele>1640</ele>
        <time>2013-08-16T07:06:19.390Z</time>
      </trkpt>
      <trkpt lat="45.54076" lon="6.70798">
        <ele>1640.92600064</ele>
        <time>2013-08-16T07:06:33.430Z</time>
      </trkpt>
      <trkpt lat="45.54072" lon="6.70775">
        <ele>1643.32600064</ele>
        <time>2013-08-16T07:06:45.430Z</time>
      </trkpt>
      <trkpt lat="45.54068" lon="6.70754">
        <ele>1646.8649984</ele>
        <time>2013-08-16T07:06:54.530Z</time>
      </trkpt>
      <trkpt lat="45.54063" lon="6.70737">
        <ele>1649.70599936</ele>
        <time>2013-08-16T07:07:02.330Z</time>
      </trkpt>
      <trkpt lat="45.54053" lon="6.70723">
        <ele>1652.32600064</ele>
        <time>2013-08-16T07:07:20.430Z</time>
      </trkpt>
      <trkpt lat="45.54055" lon="6.70744">
        <ele>1656.56200192</ele>
        <time>2013-08-16T07:07:37.340Z</time>
      </trkpt>
      <trkpt lat="45.54053" lon="6.70766">
        <ele>1658.498492302</ele>
        <time>2013-08-16T07:07:51.330Z</time>
      </trkpt>
      <trkpt lat="45.54048" lon="6.70792">
        <ele>1663.02799872</ele>
        <time>2013-08-16T07:08:06.370Z</time>
      </trkpt>
      <trkpt lat="45.54052" lon="6.70816">
        <ele>1664.97299968</ele>
        <time>2013-08-16T07:08:18.530Z</time>
      </trkpt>
      <trkpt lat="45.54052" lon="6.70833">
        <ele>1666.52600064</ele>
        <time>2013-08-16T07:08:26.430Z</time>
      </trkpt>
      <trkpt lat="45.54057" lon="6.70849">
        <ele>1670.45200128</ele>
        <time>2013-08-16T07:08:37.430Z</time>
      </trkpt>
      <trkpt lat="45.54054" lon="6.70865">
        <ele>1672.2449984</ele>
        <time>2013-08-16T07:08:51.290Z</time>
      </trkpt>
      <trkpt lat="45.54042" lon="6.70848">
        <ele>1677.72600064</ele>
        <time>2013-08-16T07:09:07.430Z</time>
      </trkpt>
      <trkpt lat="45.54036" lon="6.70832">
        <ele>1678.87299968</ele>
        <time>2013-08-16T07:09:17.530Z</time>
      </trkpt>
      <trkpt lat="45.54024" lon="6.70819">
        <ele>1681.12199936</ele>
        <time>2013-08-16T07:09:29.410Z</time>
      </trkpt>
      <trkpt lat="45.54016" lon="6.70805">
        <ele>1683.09200128</ele>
        <time>2013-08-16T07:09:39.260Z</time>
      </trkpt>
      <trkpt lat="45.54011" lon="6.70786">
        <ele>1685.70599936</ele>
        <time>2013-08-16T07:09:52.330Z</time>
      </trkpt>
      <trkpt lat="45.54" lon="6.70765">
        <ele>1689.69199872</ele>
        <time>2013-08-16T07:10:05.530Z</time>
      </trkpt>
      <trkpt lat="45.53988" lon="6.70759">
        <ele>1692.3243255017</ele>
        <time>2013-08-16T07:10:20.430Z</time>
      </trkpt>
      <trkpt lat="45.53976" lon="6.70755">
        <ele>1695.3393032722</ele>
        <time>2013-08-16T07:10:35.530Z</time>
      </trkpt>
      <trkpt lat="45.53984" lon="6.70769">
        <ele>1698.24399872</ele>
        <time>2013-08-16T07:10:49.410Z</time>
      </trkpt>
      <trkpt lat="45.53992" lon="6.70786">
        <ele>1702.15299968</ele>
        <time>2013-08-16T07:11:00.330Z</time>
      </trkpt>
      <trkpt lat="45.53994" lon="6.70801">
        <ele>1702.864</ele>
        <time>2013-08-16T07:11:07.440Z</time>
      </trkpt>
      <trkpt lat="45.53998" lon="6.70813">
        <ele>1704.34599936</ele>
        <time>2013-08-16T07:11:15.530Z</time>
      </trkpt>
      <trkpt lat="45.53999" lon="6.70825">
        <ele>1705.92199936</ele>
        <time>2013-08-16T07:11:23.410Z</time>
      </trkpt>
      <trkpt lat="45.54001" lon="6.70838">
        <ele>1708.71899904</ele>
        <time>2013-08-16T07:11:34.530Z</time>
      </trkpt>
      <trkpt lat="45.54004" lon="6.70851">
        <ele>1710.35100032</ele>
        <time>2013-08-16T07:11:42.310Z</time>
      </trkpt>
      <trkpt lat="45.54009" lon="6.70862">
        <ele>1711.11800064</ele>
        <time>2013-08-16T07:11:49.390Z</time>
      </trkpt>
      <trkpt lat="45.54015" lon="6.70872">
        <ele>1712.71800064</ele>
        <time>2013-08-16T07:11:57.390Z</time>
      </trkpt>
      <trkpt lat="45.5402" lon="6.70883">
        <ele>1714.34599936</ele>
        <time>2013-08-16T07:12:05.530Z</time>
      </trkpt>
      <trkpt lat="45.54024" lon="6.70896">
        <ele>1715.94599936</ele>
        <time>2013-08-16T07:12:13.530Z</time>
      </trkpt>
      <trkpt lat="45.54028" lon="6.70916">
        <ele>1718.12</ele>
        <time>2013-08-16T07:12:24.400Z</time>
      </trkpt>
      <trkpt lat="45.54035" lon="6.70938">
        <ele>1721.12600064</ele>
        <time>2013-08-16T07:12:39.430Z</time>
      </trkpt>
      <trkpt lat="45.54035" lon="6.70949">
        <ele>1722.32600064</ele>
        <time>2013-08-16T07:12:45.430Z</time>
      </trkpt>
      <trkpt lat="45.54031" lon="6.70961">
        <ele>1725.24399872</ele>
        <time>2013-08-16T07:12:54.410Z</time>
      </trkpt>
      <trkpt lat="45.54025" lon="6.7097">
        <ele>1728.44399872</ele>
        <time>2013-08-16T07:13:02.410Z</time>
      </trkpt>
      <trkpt lat="45.54018" lon="6.70977">
        <ele>1731</ele>
        <time>2013-08-16T07:13:09.400Z</time>
      </trkpt>
      <trkpt lat="45.54008" lon="6.70983">
        <ele>1731</ele>
        <time>2013-08-16T07:13:18.400Z</time>
      </trkpt>
      <trkpt lat="45.54001" lon="6.71001">
        <ele>1734.4994982916</ele>
        <time>2013-08-16T07:13:36.310Z</time>
      </trkpt>
      <trkpt lat="45.53986" lon="6.71009">
        <ele>1736.10599936</ele>
        <time>2013-08-16T07:13:49.330Z</time>
      </trkpt>
      <trkpt lat="45.53985" lon="6.70991">
        <ele>1739.14599936</ele>
        <time>2013-08-16T07:14:04.530Z</time>
      </trkpt>
      <trkpt lat="45.53973" lon="6.70981">
        <ele>1741.53799936</ele>
        <time>2013-08-16T07:14:16.490Z</time>
      </trkpt>
      <trkpt lat="45.53973" lon="6.70995">
        <ele>1743.52199936</ele>
        <time>2013-08-16T07:14:26.410Z</time>
      </trkpt>
      <trkpt lat="45.53969" lon="6.71017">
        <ele>1746.50599936</ele>
        <time>2013-08-16T07:14:41.330Z</time>
      </trkpt>
      <trkpt lat="45.53957" lon="6.71007">
        <ele>1748.90200064</ele>
        <time>2013-08-16T07:14:53.310Z</time>
      </trkpt>
      <trkpt lat="45.53947" lon="6.70998">
        <ele>1750.46300032</ele>
        <time>2013-08-16T07:15:03.430Z</time>
      </trkpt>
      <trkpt lat="45.53946" lon="6.71011">
        <ele>1754.90799872</ele>
        <time>2013-08-16T07:15:28.340Z</time>
      </trkpt>
      <trkpt lat="45.53949" lon="6.71021">
        <ele>1756.5153924082</ele>
        <time>2013-08-16T07:15:36.430Z</time>
      </trkpt>
      <trkpt lat="45.53954" lon="6.71032">
        <ele>1758.321249167</ele>
        <time>2013-08-16T07:15:45.430Z</time>
      </trkpt>
      <trkpt lat="45.53958" lon="6.71044">
        <ele>1760.12600064</ele>
        <time>2013-08-16T07:15:54.430Z</time>
      </trkpt>
      <trkpt lat="45.5396" lon="6.71056">
        <ele>1762.05200128</ele>
        <time>2013-08-16T07:16:01.430Z</time>
      </trkpt>
      <trkpt lat="45.53949" lon="6.71053">
        <ele>1765</ele>
        <time>2013-08-16T07:16:17.430Z</time>
      </trkpt>
      <trkpt lat="45.5395" lon="6.71067">
        <ele>1770.34599936</ele>
        <time>2013-08-16T07:16:45.530Z</time>
      </trkpt>
      <trkpt lat="45.53941" lon="6.71061">
        <ele>1773.3166830982</ele>
        <time>2013-08-16T07:16:56.530Z</time>
      </trkpt>
      <trkpt lat="45.5393" lon="6.71053">
        <ele>1775.9459453226</ele>
        <time>2013-08-16T07:17:08.530Z</time>
      </trkpt>
      <trkpt lat="45.53937" lon="6.71067">
        <ele>1780.51800064</ele>
        <time>2013-08-16T07:17:36.390Z</time>
      </trkpt>
      <trkpt lat="45.53939" lon="6.71077">
        <ele>1783.29199872</ele>
        <time>2013-08-16T07:17:44.530Z</time>
      </trkpt>
      <trkpt lat="45.53932" lon="6.7108">
        <ele>1785.75100032</ele>
        <time>2013-08-16T07:17:56.310Z</time>
      </trkpt>
      <trkpt lat="45.53924" lon="6.71073">
        <ele>1786.4625379301</ele>
        <time>2013-08-16T07:18:03.430Z</time>
      </trkpt>
      <trkpt lat="45.53918" lon="6.71066">
        <ele>1787.5245256378</ele>
        <time>2013-08-16T07:18:11.430Z</time>
      </trkpt>
      <trkpt lat="45.5391" lon="6.7106">
        <ele>1789.304</ele>
        <time>2013-08-16T07:18:20.320Z</time>
      </trkpt>
      <trkpt lat="45.53903" lon="6.71054">
        <ele>1790.904</ele>
        <time>2013-08-16T07:18:28.320Z</time>
      </trkpt>
      <trkpt lat="45.53897" lon="6.71048">
        <ele>1792.34599936</ele>
        <time>2013-08-16T07:18:35.530Z</time>
      </trkpt>
      <trkpt lat="45.53904" lon="6.71052">
        <ele>1794.12199936</ele>
        <time>2013-08-16T07:18:49.410Z</time>
      </trkpt>
      <trkpt lat="45.53907" lon="6.71061">
        <ele>1795.32199936</ele>
        <time>2013-08-16T07:18:55.410Z</time>
      </trkpt>
      <trkpt lat="45.5391" lon="6.71074">
        <ele>1796.9441117408</ele>
        <time>2013-08-16T07:19:03.530Z</time>
      </trkpt>
      <trkpt lat="45.53912" lon="6.71085">
        <ele>1797.9421163702</ele>
        <time>2013-08-16T07:19:08.530Z</time>
      </trkpt>
      <trkpt lat="45.53914" lon="6.71095">
        <ele>1799.1002016191</ele>
        <time>2013-08-16T07:19:14.310Z</time>
      </trkpt>
      <trkpt lat="45.53904" lon="6.71102">
        <ele>1801.70599936</ele>
        <time>2013-08-16T07:19:32.330Z</time>
      </trkpt>
      <trkpt lat="45.53895" lon="6.71096">
        <ele>1803.48900096</ele>
        <time>2013-08-16T07:19:40.430Z</time>
      </trkpt>
      <trkpt lat="45.53886" lon="6.71089">
        <ele>1806.712</ele>
        <time>2013-08-16T07:19:52.360Z</time>
      </trkpt>
      <trkpt lat="45.53886" lon="6.71104">
        <ele>1811.10599936</ele>
        <time>2013-08-16T07:20:19.330Z</time>
      </trkpt>
      <trkpt lat="45.53888" lon="6.71116">
        <ele>1812.90599936</ele>
        <time>2013-08-16T07:20:28.330Z</time>
      </trkpt>
      <trkpt lat="45.53889" lon="6.7113">
        <ele>1814.72600064</ele>
        <time>2013-08-16T07:20:37.430Z</time>
      </trkpt>
      <trkpt lat="45.53888" lon="6.71145">
        <ele>1817.65200128</ele>
        <time>2013-08-16T07:20:45.430Z</time>
      </trkpt>
      <trkpt lat="45.53887" lon="6.71163">
        <ele>1819.93799936</ele>
        <time>2013-08-16T07:20:53.490Z</time>
      </trkpt>
      <trkpt lat="45.53887" lon="6.71175">
        <ele>1821.14599936</ele>
        <time>2013-08-16T07:20:59.530Z</time>
      </trkpt>
      <trkpt lat="45.53886" lon="6.71188">
        <ele>1822.52600064</ele>
        <time>2013-08-16T07:21:06.430Z</time>
      </trkpt>
      <trkpt lat="45.53881" lon="6.71202">
        <ele>1824.70200064</ele>
        <time>2013-08-16T07:21:17.310Z</time>
      </trkpt>
      <trkpt lat="45.53874" lon="6.71213">
        <ele>1826.728</ele>
        <time>2013-08-16T07:21:27.440Z</time>
      </trkpt>
      <trkpt lat="45.53867" lon="6.71225">
        <ele>1828.72600064</ele>
        <time>2013-08-16T07:21:37.430Z</time>
      </trkpt>
      <trkpt lat="45.5386" lon="6.71238">
        <ele>1830.32600064</ele>
        <time>2013-08-16T07:21:45.430Z</time>
      </trkpt>
      <trkpt lat="45.53854" lon="6.71251">
        <ele>1831.921393965</ele>
        <time>2013-08-16T07:21:53.430Z</time>
      </trkpt>
      <trkpt lat="45.53849" lon="6.71262">
        <ele>1833.5145726988</ele>
        <time>2013-08-16T07:22:01.410Z</time>
      </trkpt>
      <trkpt lat="45.53847" lon="6.71276">
        <ele>1835.07299968</ele>
        <time>2013-08-16T07:22:09.530Z</time>
      </trkpt>
      <trkpt lat="45.53839" lon="6.71287">
        <ele>1835.87299968</ele>
        <time>2013-08-16T07:22:17.530Z</time>
      </trkpt>
      <trkpt lat="45.53833" lon="6.71291">
        <ele>1836.52199936</ele>
        <time>2013-08-16T07:22:21.410Z</time>
      </trkpt>
      <trkpt lat="45.53824" lon="6.713">
        <ele>1838.72199936</ele>
        <time>2013-08-16T07:22:32.410Z</time>
      </trkpt>
      <trkpt lat="45.53815" lon="6.71309">
        <ele>1840.69199872</ele>
        <time>2013-08-16T07:22:42.260Z</time>
      </trkpt>
      <trkpt lat="45.53808" lon="6.71319">
        <ele>1842.32600064</ele>
        <time>2013-08-16T07:22:50.430Z</time>
      </trkpt>
      <trkpt lat="45.53806" lon="6.71333">
        <ele>1844.36300032</ele>
        <time>2013-08-16T07:23:02.430Z</time>
      </trkpt>
      <trkpt lat="45.5381" lon="6.71348">
        <ele>1845.52199936</ele>
        <time>2013-08-16T07:23:11.410Z</time>
      </trkpt>
      <trkpt lat="45.53807" lon="6.71366">
        <ele>1847.92600064</ele>
        <time>2013-08-16T07:23:23.430Z</time>
      </trkpt>
      <trkpt lat="45.53802" lon="6.71382">
        <ele>1849.5254753328</ele>
        <time>2013-08-16T07:23:31.430Z</time>
      </trkpt>
      <trkpt lat="45.53794" lon="6.71394">
        <ele>1851.0620626828</ele>
        <time>2013-08-16T07:23:39.430Z</time>
      </trkpt>
      <trkpt lat="45.53793" lon="6.7141">
        <ele>1853.75100032</ele>
        <time>2013-08-16T07:24:01.290Z</time>
      </trkpt>
      <trkpt lat="45.53785" lon="6.71422">
        <ele>1854.2903875648</ele>
        <time>2013-08-16T07:24:15.310Z</time>
      </trkpt>
      <trkpt lat="45.53777" lon="6.71436">
        <ele>1856.5216960576</ele>
        <time>2013-08-16T07:24:26.430Z</time>
      </trkpt>
      <trkpt lat="45.53768" lon="6.71447">
        <ele>1857.86300032</ele>
        <time>2013-08-16T07:24:37.430Z</time>
      </trkpt>
      <trkpt lat="45.53755" lon="6.71455">
        <ele>1859.9164191575</ele>
        <time>2013-08-16T07:24:48.430Z</time>
      </trkpt>
      <trkpt lat="45.53743" lon="6.7146">
        <ele>1863.778893257</ele>
        <time>2013-08-16T07:24:56.370Z</time>
      </trkpt>
      <trkpt lat="45.53731" lon="6.7146">
        <ele>1867</ele>
        <time>2013-08-16T07:25:11.430Z</time>
      </trkpt>
      <trkpt lat="45.53722" lon="6.71468">
        <ele>1868.32600064</ele>
        <time>2013-08-16T07:25:25.430Z</time>
      </trkpt>
      <trkpt lat="45.53711" lon="6.71477">
        <ele>1873.16300032</ele>
        <time>2013-08-16T07:25:40.430Z</time>
      </trkpt>
      <trkpt lat="45.53703" lon="6.71485">
        <ele>1873.96300032</ele>
        <time>2013-08-16T07:25:48.430Z</time>
      </trkpt>
      <trkpt lat="45.53701" lon="6.71493">
        <ele>1875.32600064</ele>
        <time>2013-08-16T07:25:55.430Z</time>
      </trkpt>
      <trkpt lat="45.53697" lon="6.71476">
        <ele>1881.16099968</ele>
        <time>2013-08-16T07:26:10.410Z</time>
      </trkpt>
      <trkpt lat="45.53701" lon="6.71492">
        <ele>1882.7682316941</ele>
        <time>2013-08-16T07:26:26.490Z</time>
      </trkpt>
      <trkpt lat="45.53697" lon="6.7151">
        <ele>1884.3253261821</ele>
        <time>2013-08-16T07:26:35.430Z</time>
      </trkpt>
      <trkpt lat="45.53689" lon="6.71524">
        <ele>1886.12600064</ele>
        <time>2013-08-16T07:26:44.430Z</time>
      </trkpt>
      <trkpt lat="45.53683" lon="6.71536">
        <ele>1887.90200064</ele>
        <time>2013-08-16T07:26:53.310Z</time>
      </trkpt>
      <trkpt lat="45.53677" lon="6.71527">
        <ele>1892.85200128</ele>
        <time>2013-08-16T07:27:08.430Z</time>
      </trkpt>
      <trkpt lat="45.53675" lon="6.71508">
        <ele>1894.24999936</ele>
        <time>2013-08-16T07:27:21.300Z</time>
      </trkpt>
      <trkpt lat="45.53673" lon="6.71526">
        <ele>1898.9057164793</ele>
        <time>2013-08-16T07:27:48.330Z</time>
      </trkpt>
      <trkpt lat="45.53666" lon="6.71545">
        <ele>1901.88900096</ele>
        <time>2013-08-16T07:27:58.430Z</time>
      </trkpt>
      <trkpt lat="45.53654" lon="6.71541">
        <ele>1903.12199936</ele>
        <time>2013-08-16T07:28:09.410Z</time>
      </trkpt>
      <trkpt lat="45.53651" lon="6.71524">
        <ele>1906.7299968</ele>
        <time>2013-08-16T07:28:22.260Z</time>
      </trkpt>
      <trkpt lat="45.53644" lon="6.71538">
        <ele>1914.52600064</ele>
        <time>2013-08-16T07:29:11.430Z</time>
      </trkpt>
      <trkpt lat="45.53639" lon="6.71551">
        <ele>1916.29199872</ele>
        <time>2013-08-16T07:29:20.260Z</time>
      </trkpt>
      <trkpt lat="45.53626" lon="6.71556">
        <ele>1918.65200128</ele>
        <time>2013-08-16T07:29:30.430Z</time>
      </trkpt>
      <trkpt lat="45.53613" lon="6.71568">
        <ele>1923.85200128</ele>
        <time>2013-08-16T07:29:43.430Z</time>
      </trkpt>
      <trkpt lat="45.536" lon="6.7157">
        <ele>1926</ele>
        <time>2013-08-16T07:29:53.530Z</time>
      </trkpt>
      <trkpt lat="45.53587" lon="6.71573">
        <ele>1926</ele>
        <time>2013-08-16T07:30:03.310Z</time>
      </trkpt>
      <trkpt lat="45.53573" lon="6.71577">
        <ele>1928.7514971666</ele>
        <time>2013-08-16T07:30:26.330Z</time>
      </trkpt>
      <trkpt lat="45.53558" lon="6.7159">
        <ele>1929.5601202019</ele>
        <time>2013-08-16T07:30:34.410Z</time>
      </trkpt>
      <trkpt lat="45.53541" lon="6.71598">
        <ele>1930</ele>
        <time>2013-08-16T07:30:41.530Z</time>
      </trkpt>
      <trkpt lat="45.53523" lon="6.71602">
        <ele>1930</ele>
        <time>2013-08-16T07:30:46.530Z</time>
      </trkpt>
      <trkpt lat="45.53517" lon="6.71596">
        <ele>1930</ele>
        <time>2013-08-16T07:30:49.430Z</time>
      </trkpt>
      <trkpt lat="45.53509" lon="6.71588">
        <ele>1930</ele>
        <time>2013-08-16T07:30:54.430Z</time>
      </trkpt>
      <trkpt lat="45.53501" lon="6.71588">
        <ele>1931.35299968</ele>
        <time>2013-08-16T07:31:22.330Z</time>
      </trkpt>
      <trkpt lat="45.53493" lon="6.71586">
        <ele>1931.96300032</ele>
        <time>2013-08-16T07:31:28.430Z</time>
      </trkpt>
      <trkpt lat="45.53487" lon="6.71577">
        <ele>1933.54599936</ele>
        <time>2013-08-16T07:31:36.530Z</time>
      </trkpt>
      <trkpt lat="45.53483" lon="6.71566">
        <ele>1934.92199936</ele>
        <time>2013-08-16T07:31:43.410Z</time>
      </trkpt>
      <trkpt lat="45.53471" lon="6.71567">
        <ele>1936.76300032</ele>
        <time>2013-08-16T07:31:56.430Z</time>
      </trkpt>
      <trkpt lat="45.5346" lon="6.71568">
        <ele>1938.32199936</ele>
        <time>2013-08-16T07:32:05.410Z</time>
      </trkpt>
      <trkpt lat="45.53452" lon="6.71575">
        <ele>1947</ele>
        <time>2013-08-16T07:32:32.310Z</time>
      </trkpt>
      <trkpt lat="45.53443" lon="6.71586">
        <ele>1950.80000256</ele>
        <time>2013-08-16T07:32:48.300Z</time>
      </trkpt>
      <trkpt lat="45.53434" lon="6.71598">
        <ele>1952.82799872</ele>
        <time>2013-08-16T07:33:03.370Z</time>
      </trkpt>
      <trkpt lat="45.53428" lon="6.71614">
        <ele>1955</ele>
        <time>2013-08-16T07:33:13.430Z</time>
      </trkpt>
      <trkpt lat="45.53419" lon="6.71622">
        <ele>1955.3009015208</ele>
        <time>2013-08-16T07:33:20.330Z</time>
      </trkpt>
      <trkpt lat="45.53416" lon="6.71644">
        <ele>1958.10200064</ele>
        <time>2013-08-16T07:33:34.310Z</time>
      </trkpt>
      <trkpt lat="45.53407" lon="6.7166">
        <ele>1960.34599936</ele>
        <time>2013-08-16T07:33:45.530Z</time>
      </trkpt>
      <trkpt lat="45.53395" lon="6.7167">
        <ele>1962.78400256</ele>
        <time>2013-08-16T07:33:53.260Z</time>
      </trkpt>
      <trkpt lat="45.53388" lon="6.71672">
        <ele>1964.78399744</ele>
        <time>2013-08-16T07:33:58.260Z</time>
      </trkpt>
      <trkpt lat="45.53384" lon="6.71664">
        <ele>1965.56300032</ele>
        <time>2013-08-16T07:34:04.430Z</time>
      </trkpt>
      <trkpt lat="45.53383" lon="6.71651">
        <ele>1966.90599936</ele>
        <time>2013-08-16T07:34:13.330Z</time>
      </trkpt>
      <trkpt lat="45.53389" lon="6.7163">
        <ele>1969.52600064</ele>
        <time>2013-08-16T07:34:26.430Z</time>
      </trkpt>
      <trkpt lat="45.53398" lon="6.71616">
        <ele>1971.11399936</ele>
        <time>2013-08-16T07:34:34.370Z</time>
      </trkpt>
      <trkpt lat="45.53401" lon="6.716">
        <ele>1972.92600064</ele>
        <time>2013-08-16T07:34:43.430Z</time>
      </trkpt>
      <trkpt lat="45.53393" lon="6.71588">
        <ele>1974.97299968</ele>
        <time>2013-08-16T07:34:58.530Z</time>
      </trkpt>
      <trkpt lat="45.53386" lon="6.71576">
        <ele>1976.5244766512</ele>
        <time>2013-08-16T07:35:06.430Z</time>
      </trkpt>
      <trkpt lat="45.53387" lon="6.71595">
        <ele>1981.50200064</ele>
        <time>2013-08-16T07:35:36.310Z</time>
      </trkpt>
      <trkpt lat="45.53385" lon="6.7161">
        <ele>1983.52600064</ele>
        <time>2013-08-16T07:35:46.430Z</time>
      </trkpt>
      <trkpt lat="45.53375" lon="6.71622">
        <ele>1988.7550016</ele>
        <time>2013-08-16T07:35:58.310Z</time>
      </trkpt>
      <trkpt lat="45.53374" lon="6.71602">
        <ele>1995.12600064</ele>
        <time>2013-08-16T07:36:34.430Z</time>
      </trkpt>
      <trkpt lat="45.53366" lon="6.7159">
        <ele>1996.47299968</ele>
        <time>2013-08-16T07:36:43.530Z</time>
      </trkpt>
      <trkpt lat="45.53352" lon="6.71583">
        <ele>2006</ele>
        <time>2013-08-16T07:37:37.410Z</time>
      </trkpt>
      <trkpt lat="45.53343" lon="6.71577">
        <ele>2007</ele>
        <time>2013-08-16T07:37:55.410Z</time>
      </trkpt>
      <trkpt lat="45.53351" lon="6.71597">
        <ele>2014.29199872</ele>
        <time>2013-08-16T07:38:30.260Z</time>
      </trkpt>
      <trkpt lat="45.53338" lon="6.71592">
        <ele>2017.10200064</ele>
        <time>2013-08-16T07:38:44.310Z</time>
      </trkpt>
      <trkpt lat="45.53326" lon="6.71597">
        <ele>2019.4841903557</ele>
        <time>2013-08-16T07:38:56.310Z</time>
      </trkpt>
      <trkpt lat="45.53329" lon="6.71611">
        <ele>2023.60400128</ele>
        <time>2013-08-16T07:39:15.310Z</time>
      </trkpt>
      <trkpt lat="45.53326" lon="6.71629">
        <ele>2026.50800128</ele>
        <time>2013-08-16T07:39:31.340Z</time>
      </trkpt>
      <trkpt lat="45.53313" lon="6.7164">
        <ele>2029.52600064</ele>
        <time>2013-08-16T07:39:46.430Z</time>
      </trkpt>
      <trkpt lat="45.53301" lon="6.71644">
        <ele>2031.10200064</ele>
        <time>2013-08-16T07:39:54.310Z</time>
      </trkpt>
      <trkpt lat="45.53288" lon="6.71652">
        <ele>2033.70200064</ele>
        <time>2013-08-16T07:40:07.310Z</time>
      </trkpt>
      <trkpt lat="45.53275" lon="6.71657">
        <ele>2034.92600064</ele>
        <time>2013-08-16T07:40:13.430Z</time>
      </trkpt>
      <trkpt lat="45.53277" lon="6.71679">
        <ele>2038.51800064</ele>
        <time>2013-08-16T07:40:31.390Z</time>
      </trkpt>
      <trkpt lat="45.53269" lon="6.71698">
        <ele>2041.14599936</ele>
        <time>2013-08-16T07:40:44.530Z</time>
      </trkpt>
      <trkpt lat="45.53272" lon="6.71714">
        <ele>2042.66099968</ele>
        <time>2013-08-16T07:40:55.410Z</time>
      </trkpt>
      <trkpt lat="45.53264" lon="6.71722">
        <ele>2046.2617377061</ele>
        <time>2013-08-16T07:41:05.330Z</time>
      </trkpt>
      <trkpt lat="45.53271" lon="6.71743">
        <ele>2048</ele>
        <time>2013-08-16T07:41:18.430Z</time>
      </trkpt>
      <trkpt lat="45.53262" lon="6.71742">
        <ele>2048.97299968</ele>
        <time>2013-08-16T07:41:28.530Z</time>
      </trkpt>
      <trkpt lat="45.53256" lon="6.71736">
        <ele>2050.89199872</ele>
        <time>2013-08-16T07:41:33.530Z</time>
      </trkpt>
      <trkpt lat="45.53248" lon="6.71733">
        <ele>2053.0726365206</ele>
        <time>2013-08-16T07:41:39.530Z</time>
      </trkpt>
      <trkpt lat="45.53244" lon="6.71718">
        <ele>2054.5005042812</ele>
        <time>2013-08-16T07:41:51.340Z</time>
      </trkpt>
      <trkpt lat="45.53238" lon="6.71708">
        <ele>2055.7065340441</ele>
        <time>2013-08-16T07:41:57.340Z</time>
      </trkpt>
      <trkpt lat="45.53232" lon="6.71697">
        <ele>2057.52600064</ele>
        <time>2013-08-16T07:42:06.430Z</time>
      </trkpt>
      <trkpt lat="45.5323" lon="6.71681">
        <ele>2061.0489533024</ele>
        <time>2013-08-16T07:42:16.430Z</time>
      </trkpt>
      <trkpt lat="45.5323" lon="6.71665">
        <ele>2062</ele>
        <time>2013-08-16T07:42:25.530Z</time>
      </trkpt>
      <trkpt lat="45.53229" lon="6.7165">
        <ele>2063.34599936</ele>
        <time>2013-08-16T07:42:35.530Z</time>
      </trkpt>
      <trkpt lat="45.53227" lon="6.71633">
        <ele>2065.52199936</ele>
        <time>2013-08-16T07:42:46.410Z</time>
      </trkpt>
      <trkpt lat="45.53218" lon="6.71642">
        <ele>2072.56</ele>
        <time>2013-08-16T07:43:14.400Z</time>
      </trkpt>
      <trkpt lat="45.53217" lon="6.7166">
        <ele>2074.12</ele>
        <time>2013-08-16T07:43:24.400Z</time>
      </trkpt>
      <trkpt lat="45.53213" lon="6.71676">
        <ele>2075.94599936</ele>
        <time>2013-08-16T07:43:33.530Z</time>
      </trkpt>
      <trkpt lat="45.53206" lon="6.71688">
        <ele>2077.49799936</ele>
        <time>2013-08-16T07:43:41.290Z</time>
      </trkpt>
      <trkpt lat="45.53205" lon="6.71703">
        <ele>2079.30599936</ele>
        <time>2013-08-16T07:43:50.330Z</time>
      </trkpt>
      <trkpt lat="45.53203" lon="6.71718">
        <ele>2081.16300032</ele>
        <time>2013-08-16T07:44:00.430Z</time>
      </trkpt>
      <trkpt lat="45.53197" lon="6.71732">
        <ele>2082.30599936</ele>
        <time>2013-08-16T07:44:10.330Z</time>
      </trkpt>
      <trkpt lat="45.53197" lon="6.71751">
        <ele>2084.52</ele>
        <time>2013-08-16T07:44:21.400Z</time>
      </trkpt>
      <trkpt lat="45.53196" lon="6.71769">
        <ele>2086.5244271906</ele>
        <time>2013-08-16T07:44:31.430Z</time>
      </trkpt>
      <trkpt lat="45.53199" lon="6.71783">
        <ele>2088.1063183491</ele>
        <time>2013-08-16T07:44:39.360Z</time>
      </trkpt>
      <trkpt lat="45.5319" lon="6.7178">
        <ele>2091.72199936</ele>
        <time>2013-08-16T07:44:57.410Z</time>
      </trkpt>
      <trkpt lat="45.53184" lon="6.71767">
        <ele>2094.06300032</ele>
        <time>2013-08-16T07:45:09.430Z</time>
      </trkpt>
      <trkpt lat="45.53181" lon="6.71756">
        <ele>2095.16300032</ele>
        <time>2013-08-16T07:45:20.430Z</time>
      </trkpt>
      <trkpt lat="45.53178" lon="6.71744">
        <ele>2095.86300032</ele>
        <time>2013-08-16T07:45:27.430Z</time>
      </trkpt>
      <trkpt lat="45.53175" lon="6.71731">
        <ele>2097.14599936</ele>
        <time>2013-08-16T07:45:34.530Z</time>
      </trkpt>
      <trkpt lat="45.53172" lon="6.7172">
        <ele>2098.488</ele>
        <time>2013-08-16T07:45:41.240Z</time>
      </trkpt>
      <trkpt lat="45.53171" lon="6.71705">
        <ele>2100</ele>
        <time>2013-08-16T07:45:49.330Z</time>
      </trkpt>
      <trkpt lat="45.53169" lon="6.71693">
        <ele>2100</ele>
        <time>2013-08-16T07:45:56.330Z</time>
      </trkpt>
      <trkpt lat="45.53167" lon="6.71679">
        <ele>2101.656</ele>
        <time>2013-08-16T07:46:04.320Z</time>
      </trkpt>
      <trkpt lat="45.53167" lon="6.71667">
        <ele>2103.74599936</ele>
        <time>2013-08-16T07:46:12.530Z</time>
      </trkpt>
      <trkpt lat="45.53167" lon="6.71656">
        <ele>2105</ele>
        <time>2013-08-16T07:46:31.530Z</time>
      </trkpt>
      <trkpt lat="45.53165" lon="6.71646">
        <ele>2105</ele>
        <time>2013-08-16T07:46:34.530Z</time>
      </trkpt>
      <trkpt lat="45.53162" lon="6.71634">
        <ele>2105</ele>
        <time>2013-08-16T07:46:37.530Z</time>
      </trkpt>
      <trkpt lat="45.53159" lon="6.71623">
        <ele>2104.83699968</ele>
        <time>2013-08-16T07:46:40.430Z</time>
      </trkpt>
      <trkpt lat="45.53156" lon="6.7161">
        <ele>2104.43699968</ele>
        <time>2013-08-16T07:46:44.430Z</time>
      </trkpt>
      <trkpt lat="45.53154" lon="6.71596">
        <ele>2103.7111784099</ele>
        <time>2013-08-16T07:46:50.260Z</time>
      </trkpt>
      <trkpt lat="45.5314" lon="6.71594">
        <ele>2102</ele>
        <time>2013-08-16T07:47:03.430Z</time>
      </trkpt>
      <trkpt lat="45.53131" lon="6.71603">
        <ele>2102.25400064</ele>
        <time>2013-08-16T07:47:11.340Z</time>
      </trkpt>
      <trkpt lat="45.53121" lon="6.71606">
        <ele>2103.1213924367</ele>
        <time>2013-08-16T07:47:19.410Z</time>
      </trkpt>
      <trkpt lat="45.53113" lon="6.71603">
        <ele>2104.7134327446</ele>
        <time>2013-08-16T07:47:27.410Z</time>
      </trkpt>
      <trkpt lat="45.53106" lon="6.71598">
        <ele>2107.1666692063</ele>
        <time>2013-08-16T07:47:34.310Z</time>
      </trkpt>
      <trkpt lat="45.53096" lon="6.71596">
        <ele>2112.444783645</ele>
        <time>2013-08-16T07:47:47.430Z</time>
      </trkpt>
      <trkpt lat="45.53087" lon="6.71591">
        <ele>2115.1258748055</ele>
        <time>2013-08-16T07:47:59.430Z</time>
      </trkpt>
      <trkpt lat="45.53081" lon="6.71581">
        <ele>2116.9440559262</ele>
        <time>2013-08-16T07:48:08.530Z</time>
      </trkpt>
      <trkpt lat="45.53073" lon="6.71576">
        <ele>2122.65200128</ele>
        <time>2013-08-16T07:48:20.430Z</time>
      </trkpt>
      <trkpt lat="45.53062" lon="6.71578">
        <ele>2127.1740440557</ele>
        <time>2013-08-16T07:48:40.530Z</time>
      </trkpt>
      <trkpt lat="45.5306" lon="6.71578">
        <ele>2127.9989942851</ele>
        <time>2013-08-16T07:48:48.730Z</time>
      </trkpt>
      <trkpt lat="45.5306" lon="6.71571">
        <ele>2128</ele>
        <time>2013-08-16T07:51:12.120Z</time>
      </trkpt>
      <trkpt lat="45.53052" lon="6.71575">
        <ele>2129.92600064</ele>
        <time>2013-08-16T07:51:25.430Z</time>
      </trkpt>
      <trkpt lat="45.53046" lon="6.71572">
        <ele>2131.7544914999</ele>
        <time>2013-08-16T07:51:48.360Z</time>
      </trkpt>
      <trkpt lat="45.53038" lon="6.7157">
        <ele>2132.6994002729</ele>
        <time>2013-08-16T07:51:54.310Z</time>
      </trkpt>
      <trkpt lat="45.53027" lon="6.71576">
        <ele>2134.26</ele>
        <time>2013-08-16T07:52:03.400Z</time>
      </trkpt>
      <trkpt lat="45.53018" lon="6.71584">
        <ele>2134.76</ele>
        <time>2013-08-16T07:52:08.400Z</time>
      </trkpt>
      <trkpt lat="45.53008" lon="6.71595">
        <ele>2135</ele>
        <time>2013-08-16T07:52:13.530Z</time>
      </trkpt>
      <trkpt lat="45.52999" lon="6.71604">
        <ele>2135</ele>
        <time>2013-08-16T07:52:18.530Z</time>
      </trkpt>
      <trkpt lat="45.5299" lon="6.71612">
        <ele>2135</ele>
        <time>2013-08-16T07:52:23.430Z</time>
      </trkpt>
      <trkpt lat="45.5298" lon="6.71625">
        <ele>2135</ele>
        <time>2013-08-16T07:52:28.430Z</time>
      </trkpt>
      <trkpt lat="45.52973" lon="6.71629">
        <ele>2136.4512558147</ele>
        <time>2013-08-16T07:52:56.310Z</time>
      </trkpt>
      <trkpt lat="45.52965" lon="6.71624">
        <ele>2137.3014942253</ele>
        <time>2013-08-16T07:53:07.340Z</time>
      </trkpt>
      <trkpt lat="45.5296" lon="6.71618">
        <ele>2138.747738453</ele>
        <time>2013-08-16T07:53:13.330Z</time>
      </trkpt>
      <trkpt lat="45.52954" lon="6.71611">
        <ele>2141.11399936</ele>
        <time>2013-08-16T07:53:21.370Z</time>
      </trkpt>
      <trkpt lat="45.5295" lon="6.71601">
        <ele>2143.27600384</ele>
        <time>2013-08-16T07:53:31.260Z</time>
      </trkpt>
      <trkpt lat="45.52942" lon="6.71594">
        <ele>2148.67599616</ele>
        <time>2013-08-16T07:53:40.260Z</time>
      </trkpt>
      <trkpt lat="45.52934" lon="6.71588">
        <ele>2150.979106063</ele>
        <time>2013-08-16T07:53:47.430Z</time>
      </trkpt>
      <trkpt lat="45.52929" lon="6.71578">
        <ele>2152.4582913099</ele>
        <time>2013-08-16T07:53:55.410Z</time>
      </trkpt>
      <trkpt lat="45.52921" lon="6.71571">
        <ele>2154.032</ele>
        <time>2013-08-16T07:54:04.240Z</time>
      </trkpt>
      <trkpt lat="45.52913" lon="6.71567">
        <ele>2156.50200064</ele>
        <time>2013-08-16T07:54:13.310Z</time>
      </trkpt>
      <trkpt lat="45.52904" lon="6.71565">
        <ele>2157.90200064</ele>
        <time>2013-08-16T07:54:20.310Z</time>
      </trkpt>
      <trkpt lat="45.52895" lon="6.71558">
        <ele>2159.72600064</ele>
        <time>2013-08-16T07:54:29.430Z</time>
      </trkpt>
      <trkpt lat="45.5289" lon="6.71548">
        <ele>2160.87299968</ele>
        <time>2013-08-16T07:54:39.530Z</time>
      </trkpt>
      <trkpt lat="45.52883" lon="6.7154">
        <ele>2162.5383083107</ele>
        <time>2013-08-16T07:54:48.530Z</time>
      </trkpt>
      <trkpt lat="45.52876" lon="6.71532">
        <ele>2165.7437209266</ele>
        <time>2013-08-16T07:54:56.310Z</time>
      </trkpt>
      <trkpt lat="45.52872" lon="6.71525">
        <ele>2169.00400128</ele>
        <time>2013-08-16T07:55:03.310Z</time>
      </trkpt>
      <trkpt lat="45.52865" lon="6.71515">
        <ele>2172.30599936</ele>
        <time>2013-08-16T07:55:12.330Z</time>
      </trkpt>
      <trkpt lat="45.52859" lon="6.7151">
        <ele>2173.50599936</ele>
        <time>2013-08-16T07:55:18.330Z</time>
      </trkpt>
      <trkpt lat="45.52856" lon="6.71496">
        <ele>2174.75100032</ele>
        <time>2013-08-16T07:55:28.310Z</time>
      </trkpt>
      <trkpt lat="45.52853" lon="6.71485">
        <ele>2175.92600064</ele>
        <time>2013-08-16T07:55:35.430Z</time>
      </trkpt>
      <trkpt lat="45.52851" lon="6.71471">
        <ele>2177.7343279552</ele>
        <time>2013-08-16T07:55:44.490Z</time>
      </trkpt>
      <trkpt lat="45.52847" lon="6.7146">
        <ele>2179.2300032</ele>
        <time>2013-08-16T07:55:51.310Z</time>
      </trkpt>
      <trkpt lat="45.52843" lon="6.71451">
        <ele>2182.7750016</ele>
        <time>2013-08-16T07:55:58.400Z</time>
      </trkpt>
      <trkpt lat="45.52843" lon="6.71443">
        <ele>2185.5236188869</ele>
        <time>2013-08-16T07:56:08.430Z</time>
      </trkpt>
      <trkpt lat="45.52841" lon="6.71433">
        <ele>2186.36099968</ele>
        <time>2013-08-16T07:56:14.410Z</time>
      </trkpt>
      <trkpt lat="45.5284" lon="6.71425">
        <ele>2186.86099968</ele>
        <time>2013-08-16T07:56:19.410Z</time>
      </trkpt>
      <trkpt lat="45.52838" lon="6.71414">
        <ele>2187</ele>
        <time>2013-08-16T07:56:30.530Z</time>
      </trkpt>
      <trkpt lat="45.52834" lon="6.71403">
        <ele>2188.72600064</ele>
        <time>2013-08-16T07:56:39.430Z</time>
      </trkpt>
      <trkpt lat="45.52832" lon="6.71393">
        <ele>2190.3820909475</ele>
        <time>2013-08-16T07:56:45.430Z</time>
      </trkpt>
      <trkpt lat="45.52828" lon="6.71384">
        <ele>2192.311558332</ele>
        <time>2013-08-16T07:56:52.400Z</time>
      </trkpt>
      <trkpt lat="45.52824" lon="6.71377">
        <ele>2193.6984912728</ele>
        <time>2013-08-16T07:56:59.300Z</time>
      </trkpt>
      <trkpt lat="45.5282" lon="6.71372">
        <ele>2194</ele>
        <time>2013-08-16T07:57:14.430Z</time>
      </trkpt>
      <trkpt lat="45.52814" lon="6.71364">
        <ele>2194</ele>
        <time>2013-08-16T07:57:19.330Z</time>
      </trkpt>
      <trkpt lat="45.52808" lon="6.71357">
        <ele>2194.27299968</ele>
        <time>2013-08-16T07:57:23.530Z</time>
      </trkpt>
      <trkpt lat="45.52803" lon="6.71349">
        <ele>2194.67299968</ele>
        <time>2013-08-16T07:57:27.530Z</time>
      </trkpt>
      <trkpt lat="45.52798" lon="6.71341">
        <ele>2195.51899904</ele>
        <time>2013-08-16T07:57:32.530Z</time>
      </trkpt>
      <trkpt lat="45.5279" lon="6.71331">
        <ele>2197.31899904</ele>
        <time>2013-08-16T07:57:38.530Z</time>
      </trkpt>
      <trkpt lat="45.52784" lon="6.71318">
        <ele>2198.2697625296</ele>
        <time>2013-08-16T07:57:43.530Z</time>
      </trkpt>
      <trkpt lat="45.52779" lon="6.71309">
        <ele>2198.6571143083</ele>
        <time>2013-08-16T07:57:47.450Z</time>
      </trkpt>
      <trkpt lat="45.52774" lon="6.71299">
        <ele>2199.032388664</ele>
        <time>2013-08-16T07:57:51.240Z</time>
      </trkpt>
      <trkpt lat="45.52767" lon="6.71286">
        <ele>2199.7408906883</ele>
        <time>2013-08-16T07:57:58.240Z</time>
      </trkpt>
      <trkpt lat="45.52761" lon="6.71273">
        <ele>2200.50599936</ele>
        <time>2013-08-16T07:58:03.330Z</time>
      </trkpt>
      <trkpt lat="45.52757" lon="6.71263">
        <ele>2201.90599936</ele>
        <time>2013-08-16T07:58:10.330Z</time>
      </trkpt>
      <trkpt lat="45.52753" lon="6.71254">
        <ele>2202</ele>
        <time>2013-08-16T07:58:16.430Z</time>
      </trkpt>
      <trkpt lat="45.52748" lon="6.71246">
        <ele>2202</ele>
        <time>2013-08-16T07:58:19.430Z</time>
      </trkpt>
      <trkpt lat="45.52742" lon="6.71237">
        <ele>2202</ele>
        <time>2013-08-16T07:58:23.430Z</time>
      </trkpt>
      <trkpt lat="45.52737" lon="6.71227">
        <ele>2202</ele>
        <time>2013-08-16T07:58:29.530Z</time>
      </trkpt>
      <trkpt lat="45.52732" lon="6.71219">
        <ele>2202.74599936</ele>
        <time>2013-08-16T07:58:34.530Z</time>
      </trkpt>
      <trkpt lat="45.52725" lon="6.71212">
        <ele>2203.54599936</ele>
        <time>2013-08-16T07:58:38.530Z</time>
      </trkpt>
      <trkpt lat="45.52717" lon="6.71207">
        <ele>2204.6811011024</ele>
        <time>2013-08-16T07:58:42.530Z</time>
      </trkpt>
      <trkpt lat="45.5271" lon="6.71199">
        <ele>2206.6496050394</ele>
        <time>2013-08-16T07:58:47.530Z</time>
      </trkpt>
      <trkpt lat="45.52702" lon="6.71189">
        <ele>2208.1493905691</ele>
        <time>2013-08-16T07:58:52.430Z</time>
      </trkpt>
      <trkpt lat="45.52696" lon="6.71183">
        <ele>2208.5457313821</ele>
        <time>2013-08-16T07:58:56.330Z</time>
      </trkpt>
      <trkpt lat="45.52687" lon="6.71177">
        <ele>2209.75300096</ele>
        <time>2013-08-16T07:59:03.310Z</time>
      </trkpt>
      <trkpt lat="45.52678" lon="6.71169">
        <ele>2211.88299904</ele>
        <time>2013-08-16T07:59:10.410Z</time>
      </trkpt>
      <trkpt lat="45.5267" lon="6.71163">
        <ele>2212</ele>
        <time>2013-08-16T07:59:15.530Z</time>
      </trkpt>
      <trkpt lat="45.52661" lon="6.71155">
        <ele>2212</ele>
        <time>2013-08-16T07:59:20.530Z</time>
      </trkpt>
      <trkpt lat="45.52653" lon="6.71148">
        <ele>2212.74599936</ele>
        <time>2013-08-16T07:59:24.530Z</time>
      </trkpt>
      <trkpt lat="45.52644" lon="6.71145">
        <ele>2214.06300032</ele>
        <time>2013-08-16T07:59:31.430Z</time>
      </trkpt>
      <trkpt lat="45.52638" lon="6.71144">
        <ele>2216.1402982337</ele>
        <time>2013-08-16T07:59:46.530Z</time>
      </trkpt>
      <trkpt lat="45.52631" lon="6.71145">
        <ele>2217</ele>
        <time>2013-08-16T07:59:52.300Z</time>
      </trkpt>
      <trkpt lat="45.52624" lon="6.71145">
        <ele>2217</ele>
        <time>2013-08-16T07:59:55.300Z</time>
      </trkpt>
      <trkpt lat="45.52617" lon="6.71146">
        <ele>2217</ele>
        <time>2013-08-16T07:59:58.310Z</time>
      </trkpt>
      <trkpt lat="45.52608" lon="6.71149">
        <ele>2217</ele>
        <time>2013-08-16T08:00:02.330Z</time>
      </trkpt>
      <trkpt lat="45.52601" lon="6.71145">
        <ele>2217</ele>
        <time>2013-08-16T08:00:06.330Z</time>
      </trkpt>
      <trkpt lat="45.52593" lon="6.71145">
        <ele>2217</ele>
        <time>2013-08-16T08:00:10.330Z</time>
      </trkpt>
      <trkpt lat="45.52586" lon="6.71141">
        <ele>2217.72600064</ele>
        <time>2013-08-16T08:00:14.430Z</time>
      </trkpt>
      <trkpt lat="45.52575" lon="6.71139">
        <ele>2218.74599936</ele>
        <time>2013-08-16T08:00:19.530Z</time>
      </trkpt>
      <trkpt lat="45.52567" lon="6.71139">
        <ele>2219</ele>
        <time>2013-08-16T08:00:23.530Z</time>
      </trkpt>
      <trkpt lat="45.5256" lon="6.71138">
        <ele>2219</ele>
        <time>2013-08-16T08:00:43.330Z</time>
      </trkpt>
      <trkpt lat="45.52552" lon="6.71138">
        <ele>2219</ele>
        <time>2013-08-16T08:00:48.430Z</time>
      </trkpt>
      <trkpt lat="45.52547" lon="6.71135">
        <ele>2219</ele>
        <time>2013-08-16T08:00:54.330Z</time>
      </trkpt>
      <trkpt lat="45.5254" lon="6.71132">
        <ele>2219</ele>
        <time>2013-08-16T08:01:00.400Z</time>
      </trkpt>
      <trkpt lat="45.52532" lon="6.71133">
        <ele>2220.70599936</ele>
        <time>2013-08-16T08:01:14.330Z</time>
      </trkpt>
      <trkpt lat="45.52524" lon="6.71131">
        <ele>2221.90599936</ele>
        <time>2013-08-16T08:01:20.330Z</time>
      </trkpt>
      <trkpt lat="45.52516" lon="6.71128">
        <ele>2222</ele>
        <time>2013-08-16T08:01:26.430Z</time>
      </trkpt>
      <trkpt lat="45.52508" lon="6.71127">
        <ele>2222.7411098814</ele>
        <time>2013-08-16T08:01:32.300Z</time>
      </trkpt>
      <trkpt lat="45.52501" lon="6.71126">
        <ele>2225.7055367589</ele>
        <time>2013-08-16T08:01:38.300Z</time>
      </trkpt>
      <trkpt lat="45.52494" lon="6.71123">
        <ele>2227.6841578416</ele>
        <time>2013-08-16T08:01:44.310Z</time>
      </trkpt>
      <trkpt lat="45.52486" lon="6.71124">
        <ele>2228.9152358699</ele>
        <time>2013-08-16T08:01:50.410Z</time>
      </trkpt>
      <trkpt lat="45.52476" lon="6.71125">
        <ele>2229.6489460859</ele>
        <time>2013-08-16T08:01:57.300Z</time>
      </trkpt>
      <trkpt lat="45.52469" lon="6.7112">
        <ele>2232.2649984</ele>
        <time>2013-08-16T08:02:05.330Z</time>
      </trkpt>
      <trkpt lat="45.52463" lon="6.71112">
        <ele>2236.05300096</ele>
        <time>2013-08-16T08:02:14.310Z</time>
      </trkpt>
      <trkpt lat="45.52471" lon="6.71101">
        <ele>2238.52600064</ele>
        <time>2013-08-16T08:02:23.430Z</time>
      </trkpt>
      <trkpt lat="45.5247" lon="6.71092">
        <ele>2239.92600064</ele>
        <time>2013-08-16T08:02:30.430Z</time>
      </trkpt>
      <trkpt lat="45.52464" lon="6.71082">
        <ele>2242.61899904</ele>
        <time>2013-08-16T08:02:39.530Z</time>
      </trkpt>
      <trkpt lat="45.52462" lon="6.71071">
        <ele>2243.1222463344</ele>
        <time>2013-08-16T08:02:51.430Z</time>
      </trkpt>
      <trkpt lat="45.5246" lon="6.71062">
        <ele>2244.5250510461</ele>
        <time>2013-08-16T08:02:58.430Z</time>
      </trkpt>
      <trkpt lat="45.52454" lon="6.71056">
        <ele>2245.06</ele>
        <time>2013-08-16T08:03:01.400Z</time>
      </trkpt>
      <trkpt lat="45.52448" lon="6.71052">
        <ele>2245.36</ele>
        <time>2013-08-16T08:03:04.400Z</time>
      </trkpt>
      <trkpt lat="45.52439" lon="6.71044">
        <ele>2246.69199872</ele>
        <time>2013-08-16T08:03:14.260Z</time>
      </trkpt>
      <trkpt lat="45.52433" lon="6.71034">
        <ele>2247.49199872</ele>
        <time>2013-08-16T08:03:18.260Z</time>
      </trkpt>
      <trkpt lat="45.52428" lon="6.71024">
        <ele>2248</ele>
        <time>2013-08-16T08:03:22.430Z</time>
      </trkpt>
      <trkpt lat="45.52425" lon="6.7101">
        <ele>2248</ele>
        <time>2013-08-16T08:03:28.430Z</time>
      </trkpt>
      <trkpt lat="45.52418" lon="6.71002">
        <ele>2248</ele>
        <time>2013-08-16T08:03:33.430Z</time>
      </trkpt>
      <trkpt lat="45.52412" lon="6.70989">
        <ele>2248</ele>
        <time>2013-08-16T08:03:40.430Z</time>
      </trkpt>
      <trkpt lat="45.52411" lon="6.70976">
        <ele>2248</ele>
        <time>2013-08-16T08:03:50.530Z</time>
      </trkpt>
      <trkpt lat="45.52405" lon="6.70964">
        <ele>2248.4482417051</ele>
        <time>2013-08-16T08:03:55.310Z</time>
      </trkpt>
      <trkpt lat="45.52399" lon="6.70953">
        <ele>2248.9497494031</ele>
        <time>2013-08-16T08:04:00.300Z</time>
      </trkpt>
      <trkpt lat="45.52394" lon="6.70943">
        <ele>2252</ele>
        <time>2013-08-16T08:04:29.430Z</time>
      </trkpt>
      <trkpt lat="45.52394" lon="6.70934">
        <ele>2252.6492466656</ele>
        <time>2013-08-16T08:04:37.310Z</time>
      </trkpt>
      <trkpt lat="45.52391" lon="6.70917">
        <ele>2256.0158115415</ele>
        <time>2013-08-16T08:04:48.430Z</time>
      </trkpt>
      <trkpt lat="45.52389" lon="6.70901">
        <ele>2257.3390691498</ele>
        <time>2013-08-16T08:04:54.270Z</time>
      </trkpt>
      <trkpt lat="45.5239" lon="6.70891">
        <ele>2257.9463565992</ele>
        <time>2013-08-16T08:05:00.270Z</time>
      </trkpt>
      <trkpt lat="45.5239" lon="6.70877">
        <ele>2260.58299904</ele>
        <time>2013-08-16T08:05:09.410Z</time>
      </trkpt>
      <trkpt lat="45.52385" lon="6.7087">
        <ele>2262.14599936</ele>
        <time>2013-08-16T08:05:16.530Z</time>
      </trkpt>
      <trkpt lat="45.52378" lon="6.70861">
        <ele>2262.94599936</ele>
        <time>2013-08-16T08:05:20.530Z</time>
      </trkpt>
      <trkpt lat="45.52371" lon="6.70851">
        <ele>2263</ele>
        <time>2013-08-16T08:05:24.530Z</time>
      </trkpt>
      <trkpt lat="45.52364" lon="6.70843">
        <ele>2263</ele>
        <time>2013-08-16T08:05:28.530Z</time>
      </trkpt>
      <trkpt lat="45.52357" lon="6.70837">
        <ele>2263.13799936</ele>
        <time>2013-08-16T08:05:31.490Z</time>
      </trkpt>
      <trkpt lat="45.52353" lon="6.70829">
        <ele>2263.73799936</ele>
        <time>2013-08-16T08:05:34.490Z</time>
      </trkpt>
      <trkpt lat="45.52349" lon="6.70819">
        <ele>2264.53799936</ele>
        <time>2013-08-16T08:05:38.490Z</time>
      </trkpt>
      <trkpt lat="45.52345" lon="6.7081">
        <ele>2265.0507466032</ele>
        <time>2013-08-16T08:05:41.310Z</time>
      </trkpt>
      <trkpt lat="45.52341" lon="6.70801">
        <ele>2265.349254161</ele>
        <time>2013-08-16T08:05:44.310Z</time>
      </trkpt>
      <trkpt lat="45.52337" lon="6.70793">
        <ele>2265.8467667572</ele>
        <time>2013-08-16T08:05:49.310Z</time>
      </trkpt>
      <trkpt lat="45.52333" lon="6.70785">
        <ele>2266.3564260241</ele>
        <time>2013-08-16T08:05:54.400Z</time>
      </trkpt>
      <trkpt lat="45.52329" lon="6.70777">
        <ele>2266.9487961446</ele>
        <time>2013-08-16T08:06:00.300Z</time>
      </trkpt>
      <trkpt lat="45.52325" lon="6.70771">
        <ele>2268.125126046</ele>
        <time>2013-08-16T08:06:06.430Z</time>
      </trkpt>
      <trkpt lat="45.5232" lon="6.70763">
        <ele>2269.22799872</ele>
        <time>2013-08-16T08:06:11.370Z</time>
      </trkpt>
      <trkpt lat="45.52317" lon="6.70754">
        <ele>2271.22799872</ele>
        <time>2013-08-16T08:06:16.370Z</time>
      </trkpt>
      <trkpt lat="45.52316" lon="6.70744">
        <ele>2273.65200128</ele>
        <time>2013-08-16T08:06:22.430Z</time>
      </trkpt>
      <trkpt lat="45.52314" lon="6.70735">
        <ele>2275.65200128</ele>
        <time>2013-08-16T08:06:27.430Z</time>
      </trkpt>
      <trkpt lat="45.52311" lon="6.70726">
        <ele>2277.48299904</ele>
        <time>2013-08-16T08:06:32.410Z</time>
      </trkpt>
      <trkpt lat="45.52305" lon="6.70714">
        <ele>2280.5701491169</ele>
        <time>2013-08-16T08:06:46.530Z</time>
      </trkpt>
      <trkpt lat="45.52303" lon="6.70706">
        <ele>2281.0963855422</ele>
        <time>2013-08-16T08:06:51.330Z</time>
      </trkpt>
      <trkpt lat="45.52302" lon="6.70698">
        <ele>2281.8995983936</ele>
        <time>2013-08-16T08:06:55.330Z</time>
      </trkpt>
      <trkpt lat="45.523" lon="6.70693">
        <ele>2282.9036144578</ele>
        <time>2013-08-16T08:07:00.330Z</time>
      </trkpt>
      <trkpt lat="45.52294" lon="6.70696">
        <ele>2283.7627631591</ele>
        <time>2013-08-16T08:07:08.430Z</time>
      </trkpt>
      <trkpt lat="45.52285" lon="6.70694">
        <ele>2284.8975133604</ele>
        <time>2013-08-16T08:07:15.310Z</time>
      </trkpt>
      <trkpt lat="45.52285" lon="6.70683">
        <ele>2286.2572863494</ele>
        <time>2013-08-16T08:07:23.410Z</time>
      </trkpt>
      <trkpt lat="45.52285" lon="6.70671">
        <ele>2286.9608037111</ele>
        <time>2013-08-16T08:07:30.410Z</time>
      </trkpt>
      <trkpt lat="45.52286" lon="6.70662">
        <ele>2289.3649984</ele>
        <time>2013-08-16T08:07:35.530Z</time>
      </trkpt>
      <trkpt lat="45.52286" lon="6.70653">
        <ele>2291.8649984</ele>
        <time>2013-08-16T08:07:40.530Z</time>
      </trkpt>
      <trkpt lat="45.52286" lon="6.70645">
        <ele>2292.4567168817</ele>
        <time>2013-08-16T08:07:45.390Z</time>
      </trkpt>
      <trkpt lat="45.52288" lon="6.70638">
        <ele>2292.8547269587</ele>
        <time>2013-08-16T08:07:49.390Z</time>
      </trkpt>
      <trkpt lat="45.5229" lon="6.7063">
        <ele>2293.2562816462</ele>
        <time>2013-08-16T08:07:53.400Z</time>
      </trkpt>
      <trkpt lat="45.52292" lon="6.70623">
        <ele>2293.6592962704</ele>
        <time>2013-08-16T08:07:57.410Z</time>
      </trkpt>
      <trkpt lat="45.52294" lon="6.70615">
        <ele>2294.45899904</ele>
        <time>2013-08-16T08:08:02.330Z</time>
      </trkpt>
      <trkpt lat="45.52296" lon="6.70607">
        <ele>2295.65899904</ele>
        <time>2013-08-16T08:08:06.330Z</time>
      </trkpt>
      <trkpt lat="45.52297" lon="6.706">
        <ele>2297.30799872</ele>
        <time>2013-08-16T08:08:12.340Z</time>
      </trkpt>
      <trkpt lat="45.52299" lon="6.70592">
        <ele>2298.10799872</ele>
        <time>2013-08-16T08:08:16.340Z</time>
      </trkpt>
      <trkpt lat="45.523" lon="6.70581">
        <ele>2299.29799936</ele>
        <time>2013-08-16T08:08:22.290Z</time>
      </trkpt>
      <trkpt lat="45.52301" lon="6.70569">
        <ele>2300.49799936</ele>
        <time>2013-08-16T08:08:28.290Z</time>
      </trkpt>
      <trkpt lat="45.52303" lon="6.70557">
        <ele>2302.85200128</ele>
        <time>2013-08-16T08:08:35.430Z</time>
      </trkpt>
      <trkpt lat="45.52307" lon="6.70544">
        <ele>2305.5601995018</ele>
        <time>2013-08-16T08:08:46.430Z</time>
      </trkpt>
      <trkpt lat="45.52311" lon="6.7053">
        <ele>2308.7889454347</ele>
        <time>2013-08-16T08:08:56.400Z</time>
      </trkpt>
      <trkpt lat="45.52314" lon="6.70514">
        <ele>2312.98900096</ele>
        <time>2013-08-16T08:09:07.430Z</time>
      </trkpt>
      <trkpt lat="45.52315" lon="6.70502">
        <ele>2314.52600064</ele>
        <time>2013-08-16T08:09:13.430Z</time>
      </trkpt>
      <trkpt lat="45.5232" lon="6.70496">
        <ele>2315.92600064</ele>
        <time>2013-08-16T08:09:20.430Z</time>
      </trkpt>
      <trkpt lat="45.52325" lon="6.7049">
        <ele>2316.66300032</ele>
        <time>2013-08-16T08:09:27.430Z</time>
      </trkpt>
      <trkpt lat="45.52331" lon="6.70485">
        <ele>2317.9250758602</ele>
        <time>2013-08-16T08:09:35.430Z</time>
      </trkpt>
      <trkpt lat="45.52337" lon="6.70478">
        <ele>2320.7517370519</ele>
        <time>2013-08-16T08:09:43.340Z</time>
      </trkpt>
      <trkpt lat="45.52339" lon="6.70464">
        <ele>2326.987854251</ele>
        <time>2013-08-16T08:09:53.360Z</time>
      </trkpt>
      <trkpt lat="45.52342" lon="6.70455">
        <ele>2329.8218623482</ele>
        <time>2013-08-16T08:10:00.360Z</time>
      </trkpt>
      <trkpt lat="45.52346" lon="6.70445">
        <ele>2331.9950583399</ele>
        <time>2013-08-16T08:10:07.530Z</time>
      </trkpt>
      <trkpt lat="45.52349" lon="6.70433">
        <ele>2334.3390678543</ele>
        <time>2013-08-16T08:10:15.330Z</time>
      </trkpt>
      <trkpt lat="45.5235" lon="6.70421">
        <ele>2336.30599936</ele>
        <time>2013-08-16T08:10:22.330Z</time>
      </trkpt>
      <trkpt lat="45.52349" lon="6.70412">
        <ele>2337.70599936</ele>
        <time>2013-08-16T08:10:29.330Z</time>
      </trkpt>
      <trkpt lat="45.5235" lon="6.70406">
        <ele>2340</ele>
        <time>2013-08-16T08:11:20.300Z</time>
      </trkpt>
      <trkpt lat="45.5235" lon="6.704">
        <ele>2341.4666663219</ele>
        <time>2013-08-16T08:12:25.530Z</time>
      </trkpt>
      <trkpt lat="45.52348" lon="6.70394">
        <ele>2341.9717171534</ele>
        <time>2013-08-16T08:12:30.530Z</time>
      </trkpt>
      <trkpt lat="45.52345" lon="6.70387">
        <ele>2342</ele>
        <time>2013-08-16T08:12:36.530Z</time>
      </trkpt>
      <trkpt lat="45.52343" lon="6.70378">
        <ele>2342.3442780798</ele>
        <time>2013-08-16T08:12:42.530Z</time>
      </trkpt>
      <trkpt lat="45.52339" lon="6.70369">
        <ele>2344.1429989615</ele>
        <time>2013-08-16T08:12:52.290Z</time>
      </trkpt>
      <trkpt lat="45.52333" lon="6.70366">
        <ele>2344.6395231334</ele>
        <time>2013-08-16T08:12:57.290Z</time>
      </trkpt>
      <trkpt lat="45.52326" lon="6.70363">
        <ele>2346.2975702024</ele>
        <time>2013-08-16T08:13:07.330Z</time>
      </trkpt>
      <trkpt lat="45.52323" lon="6.70357">
        <ele>2347.49999872</ele>
        <time>2013-08-16T08:13:13.300Z</time>
      </trkpt>
      <trkpt lat="45.52319" lon="6.70344">
        <ele>2349.37099776</ele>
        <time>2013-08-16T08:13:21.330Z</time>
      </trkpt>
      <trkpt lat="45.52314" lon="6.70332">
        <ele>2354.97099776</ele>
        <time>2013-08-16T08:13:29.330Z</time>
      </trkpt>
      <trkpt lat="45.52311" lon="6.70321">
        <ele>2358.77800192</ele>
        <time>2013-08-16T08:13:35.430Z</time>
      </trkpt>
      <trkpt lat="45.52308" lon="6.7031">
        <ele>2362.3243788496</ele>
        <time>2013-08-16T08:13:42.430Z</time>
      </trkpt>
      <trkpt lat="45.52305" lon="6.70299">
        <ele>2363.717414119</ele>
        <time>2013-08-16T08:13:49.430Z</time>
      </trkpt>
      <trkpt lat="45.52303" lon="6.70288">
        <ele>2365.9839208896</ele>
        <time>2013-08-16T08:13:57.430Z</time>
      </trkpt>
      <trkpt lat="45.52298" lon="6.70281">
        <ele>2367.76200192</ele>
        <time>2013-08-16T08:14:03.340Z</time>
      </trkpt>
      <trkpt lat="45.52291" lon="6.70274">
        <ele>2370.21199872</ele>
        <time>2013-08-16T08:14:11.330Z</time>
      </trkpt>
      <trkpt lat="45.52285" lon="6.70265">
        <ele>2374</ele>
        <time>2013-08-16T08:14:21.530Z</time>
      </trkpt>
      <trkpt lat="45.52281" lon="6.70257">
        <ele>2374</ele>
        <time>2013-08-16T08:14:30.630Z</time>
      </trkpt>
      <trkpt lat="45.52277" lon="6.7025">
        <ele>2376.3150016</ele>
        <time>2013-08-16T08:14:35.430Z</time>
      </trkpt>
      <trkpt lat="45.52273" lon="6.70241">
        <ele>2379.3243788496</ele>
        <time>2013-08-16T08:14:42.430Z</time>
      </trkpt>
      <trkpt lat="45.52268" lon="6.70233">
        <ele>2380.5184090805</ele>
        <time>2013-08-16T08:14:48.430Z</time>
      </trkpt>
      <trkpt lat="45.52264" lon="6.70224">
        <ele>2381.4603020027</ele>
        <time>2013-08-16T08:14:55.430Z</time>
      </trkpt>
      <trkpt lat="45.52259" lon="6.70216">
        <ele>2384.11799808</ele>
        <time>2013-08-16T08:15:04.330Z</time>
      </trkpt>
      <trkpt lat="45.52253" lon="6.70208">
        <ele>2390.28900096</ele>
        <time>2013-08-16T08:15:18.430Z</time>
      </trkpt>
      <trkpt lat="45.52249" lon="6.70199">
        <ele>2393.65200128</ele>
        <time>2013-08-16T08:15:27.430Z</time>
      </trkpt>
      <trkpt lat="45.52245" lon="6.70192">
        <ele>2395.27299968</ele>
        <time>2013-08-16T08:15:33.530Z</time>
      </trkpt>
      <trkpt lat="45.52241" lon="6.70184">
        <ele>2395.77299968</ele>
        <time>2013-08-16T08:15:38.530Z</time>
      </trkpt>
      <trkpt lat="45.52239" lon="6.70177">
        <ele>2396.3435940914</ele>
        <time>2013-08-16T08:15:42.530Z</time>
      </trkpt>
      <trkpt lat="45.52238" lon="6.70168">
        <ele>2397.1380327665</ele>
        <time>2013-08-16T08:15:46.530Z</time>
      </trkpt>
      <trkpt lat="45.52238" lon="6.7016">
        <ele>2397.7338617728</ele>
        <time>2013-08-16T08:15:49.530Z</time>
      </trkpt>
      <trkpt lat="45.52242" lon="6.70147">
        <ele>2398.3514600126</ele>
        <time>2013-08-16T08:15:54.360Z</time>
      </trkpt>
      <trkpt lat="45.52245" lon="6.70139">
        <ele>2398.6535749135</ele>
        <time>2013-08-16T08:15:57.360Z</time>
      </trkpt>
      <trkpt lat="45.52249" lon="6.70127">
        <ele>2399</ele>
        <time>2013-08-16T08:16:01.430Z</time>
      </trkpt>
      <trkpt lat="45.52253" lon="6.7012">
        <ele>2399</ele>
        <time>2013-08-16T08:16:04.430Z</time>
      </trkpt>
      <trkpt lat="45.52258" lon="6.70114">
        <ele>2399</ele>
        <time>2013-08-16T08:16:10.430Z</time>
      </trkpt>
      <trkpt lat="45.52261" lon="6.70107">
        <ele>2400.36300032</ele>
        <time>2013-08-16T08:16:24.430Z</time>
      </trkpt>
      <trkpt lat="45.52261" lon="6.70108">
        <ele>2402</ele>
        <time>2013-08-16T08:17:01.540Z</time>
      </trkpt>
      <trkpt lat="45.52259" lon="6.70103">
        <ele>2406</ele>
        <time>2013-08-16T08:26:19.590Z</time>
      </trkpt>
      <trkpt lat="45.52253" lon="6.7011">
        <ele>2406</ele>
        <time>2013-08-16T08:26:26.530Z</time>
      </trkpt>
      <trkpt lat="45.52248" lon="6.70116">
        <ele>2406</ele>
        <time>2013-08-16T08:26:28.530Z</time>
      </trkpt>
      <trkpt lat="45.52241" lon="6.70119">
        <ele>2405.82700032</ele>
        <time>2013-08-16T08:26:30.530Z</time>
      </trkpt>
      <trkpt lat="45.52235" lon="6.70121">
        <ele>2405.62700032</ele>
        <time>2013-08-16T08:26:32.530Z</time>
      </trkpt>
      <trkpt lat="45.52226" lon="6.70119">
        <ele>2405.12700032</ele>
        <time>2013-08-16T08:26:37.530Z</time>
      </trkpt>
      <trkpt lat="45.52218" lon="6.70117">
        <ele>2405.4876612005</ele>
        <time>2013-08-16T08:26:41.270Z</time>
      </trkpt>
      <trkpt lat="45.52211" lon="6.7012">
        <ele>2406.0779852566</ele>
        <time>2013-08-16T08:26:44.260Z</time>
      </trkpt>
      <trkpt lat="45.52203" lon="6.70128">
        <ele>2406.9493920648</ele>
        <time>2013-08-16T08:26:49.430Z</time>
      </trkpt>
      <trkpt lat="45.52197" lon="6.70134">
        <ele>2406.6457483401</ele>
        <time>2013-08-16T08:26:52.430Z</time>
      </trkpt>
      <trkpt lat="45.52191" lon="6.70139">
        <ele>2406.3421046154</ele>
        <time>2013-08-16T08:26:55.430Z</time>
      </trkpt>
      <trkpt lat="45.52186" lon="6.70141">
        <ele>2406</ele>
        <time>2013-08-16T08:26:59.430Z</time>
      </trkpt>
      <trkpt lat="45.5218" lon="6.70141">
        <ele>2406</ele>
        <time>2013-08-16T08:27:04.430Z</time>
      </trkpt>
      <trkpt lat="45.52173" lon="6.7014">
        <ele>2406.63600128</ele>
        <time>2013-08-16T08:27:10.390Z</time>
      </trkpt>
      <trkpt lat="45.52165" lon="6.70142">
        <ele>2408.23600128</ele>
        <time>2013-08-16T08:27:14.390Z</time>
      </trkpt>
      <trkpt lat="45.52159" lon="6.70145">
        <ele>2410</ele>
        <time>2013-08-16T08:27:21.430Z</time>
      </trkpt>
      <trkpt lat="45.52153" lon="6.70147">
        <ele>2410</ele>
        <time>2013-08-16T08:27:24.530Z</time>
      </trkpt>
      <trkpt lat="45.52143" lon="6.70151">
        <ele>2410</ele>
        <time>2013-08-16T08:27:28.530Z</time>
      </trkpt>
      <trkpt lat="45.52134" lon="6.70149">
        <ele>2408.6350016</ele>
        <time>2013-08-16T08:27:31.530Z</time>
      </trkpt>
      <trkpt lat="45.52127" lon="6.70149">
        <ele>2407.1350016</ele>
        <time>2013-08-16T08:27:34.530Z</time>
      </trkpt>
      <trkpt lat="45.5212" lon="6.70152">
        <ele>2405.6350016</ele>
        <time>2013-08-16T08:27:37.530Z</time>
      </trkpt>
      <trkpt lat="45.52113" lon="6.70155">
        <ele>2403.90800128</ele>
        <time>2013-08-16T08:27:41.530Z</time>
      </trkpt>
      <trkpt lat="45.52105" lon="6.70154">
        <ele>2401.50800128</ele>
        <time>2013-08-16T08:27:47.530Z</time>
      </trkpt>
      <trkpt lat="45.52096" lon="6.7016">
        <ele>2397.1388615029</ele>
        <time>2013-08-16T08:27:56.530Z</time>
      </trkpt>
      <trkpt lat="45.5209" lon="6.70162">
        <ele>2394.0940947046</ele>
        <time>2013-08-16T08:28:01.530Z</time>
      </trkpt>
      <trkpt lat="45.52083" lon="6.7016">
        <ele>2391.9919932758</ele>
        <time>2013-08-16T08:28:04.530Z</time>
      </trkpt>
      <trkpt lat="45.52076" lon="6.70156">
        <ele>2389.1891913708</ele>
        <time>2013-08-16T08:28:08.530Z</time>
      </trkpt>
      <trkpt lat="45.52067" lon="6.70149">
        <ele>2385.008956182</ele>
        <time>2013-08-16T08:28:14.530Z</time>
      </trkpt>
      <trkpt lat="45.52059" lon="6.70146">
        <ele>2381.7939650914</ele>
        <time>2013-08-16T08:28:19.260Z</time>
      </trkpt>
      <trkpt lat="45.52049" lon="6.70141">
        <ele>2379.2763795694</ele>
        <time>2013-08-16T08:28:24.270Z</time>
      </trkpt>
      <trkpt lat="45.52041" lon="6.70137">
        <ele>2376.82900096</ele>
        <time>2013-08-16T08:28:29.370Z</time>
      </trkpt>
      <trkpt lat="45.52034" lon="6.70137">
        <ele>2375.02900096</ele>
        <time>2013-08-16T08:28:35.370Z</time>
      </trkpt>
      <trkpt lat="45.52027" lon="6.70134">
        <ele>2372.36200192</ele>
        <time>2013-08-16T08:28:41.530Z</time>
      </trkpt>
      <trkpt lat="45.52017" lon="6.70137">
        <ele>2367.22</ele>
        <time>2013-08-16T08:28:51.400Z</time>
      </trkpt>
      <trkpt lat="45.52015" lon="6.70145">
        <ele>2365.45000192</ele>
        <time>2013-08-16T08:28:57.300Z</time>
      </trkpt>
      <trkpt lat="45.52014" lon="6.70153">
        <ele>2364.43699968</ele>
        <time>2013-08-16T08:29:04.430Z</time>
      </trkpt>
      <trkpt lat="45.52015" lon="6.70164">
        <ele>2363.34799872</ele>
        <time>2013-08-16T08:29:10.430Z</time>
      </trkpt>
      <trkpt lat="45.52015" lon="6.70172">
        <ele>2361.34799872</ele>
        <time>2013-08-16T08:29:15.430Z</time>
      </trkpt>
      <trkpt lat="45.52015" lon="6.7018">
        <ele>2359.76099968</ele>
        <time>2013-08-16T08:29:21.190Z</time>
      </trkpt>
      <trkpt lat="45.52016" lon="6.70188">
        <ele>2359.06099968</ele>
        <time>2013-08-16T08:29:28.190Z</time>
      </trkpt>
      <trkpt lat="45.52014" lon="6.70199">
        <ele>2356.74799872</ele>
        <time>2013-08-16T08:29:34.430Z</time>
      </trkpt>
      <trkpt lat="45.52007" lon="6.70206">
        <ele>2353.15899776</ele>
        <time>2013-08-16T08:29:41.430Z</time>
      </trkpt>
      <trkpt lat="45.51999" lon="6.70217">
        <ele>2347.552</ele>
        <time>2013-08-16T08:29:49.360Z</time>
      </trkpt>
      <trkpt lat="45.51991" lon="6.70232">
        <ele>2339.63400192</ele>
        <time>2013-08-16T08:29:59.410Z</time>
      </trkpt>
      <trkpt lat="45.51981" lon="6.70238">
        <ele>2335.43400192</ele>
        <time>2013-08-16T08:30:06.410Z</time>
      </trkpt>
      <trkpt lat="45.51971" lon="6.70248">
        <ele>2329.98199552</ele>
        <time>2013-08-16T08:30:14.540Z</time>
      </trkpt>
      <trkpt lat="45.5196" lon="6.70253">
        <ele>2326.1849984</ele>
        <time>2013-08-16T08:30:20.430Z</time>
      </trkpt>
      <trkpt lat="45.51952" lon="6.70252">
        <ele>2323.68</ele>
        <time>2013-08-16T08:30:25.440Z</time>
      </trkpt>
      <trkpt lat="45.51946" lon="6.70254">
        <ele>2321.72700032</ele>
        <time>2013-08-16T08:30:41.530Z</time>
      </trkpt>
      <trkpt lat="45.51941" lon="6.70256">
        <ele>2321.32700032</ele>
        <time>2013-08-16T08:30:45.530Z</time>
      </trkpt>
      <trkpt lat="45.51935" lon="6.70257">
        <ele>2319.69599744</ele>
        <time>2013-08-16T08:30:50.430Z</time>
      </trkpt>
      <trkpt lat="45.51929" lon="6.70259">
        <ele>2314.888</ele>
        <time>2013-08-16T08:30:56.440Z</time>
      </trkpt>
      <trkpt lat="45.51923" lon="6.70264">
        <ele>2310.4994994625</ele>
        <time>2013-08-16T08:31:02.390Z</time>
      </trkpt>
      <trkpt lat="45.51915" lon="6.70265">
        <ele>2305.5296483925</ele>
        <time>2013-08-16T08:31:10.410Z</time>
      </trkpt>
      <trkpt lat="45.51909" lon="6.70263">
        <ele>2304.0221111889</ele>
        <time>2013-08-16T08:31:15.410Z</time>
      </trkpt>
      <trkpt lat="45.51903" lon="6.7026">
        <ele>2302.09999616</ele>
        <time>2013-08-16T08:31:20.300Z</time>
      </trkpt>
      <trkpt lat="45.51896" lon="6.70258">
        <ele>2298.49999616</ele>
        <time>2013-08-16T08:31:26.300Z</time>
      </trkpt>
      <trkpt lat="45.51889" lon="6.70258">
        <ele>2294.2449984</ele>
        <time>2013-08-16T08:31:34.310Z</time>
      </trkpt>
      <trkpt lat="45.51883" lon="6.70254">
        <ele>2289.89599744</ele>
        <time>2013-08-16T08:31:41.430Z</time>
      </trkpt>
      <trkpt lat="45.51876" lon="6.70249">
        <ele>2285.09599744</ele>
        <time>2013-08-16T08:31:47.430Z</time>
      </trkpt>
      <trkpt lat="45.51868" lon="6.70247">
        <ele>2280.7049984</ele>
        <time>2013-08-16T08:31:55.390Z</time>
      </trkpt>
      <trkpt lat="45.5186" lon="6.70244">
        <ele>2277.6849984</ele>
        <time>2013-08-16T08:32:01.430Z</time>
      </trkpt>
      <trkpt lat="45.51854" lon="6.70241">
        <ele>2275.1849984</ele>
        <time>2013-08-16T08:32:06.430Z</time>
      </trkpt>
      <trkpt lat="45.51849" lon="6.70238">
        <ele>2272</ele>
        <time>2013-08-16T08:32:34.400Z</time>
      </trkpt>
      <trkpt lat="45.51843" lon="6.70238">
        <ele>2271.87399936</ele>
        <time>2013-08-16T08:32:39.430Z</time>
      </trkpt>
      <trkpt lat="45.51838" lon="6.70236">
        <ele>2270.87399936</ele>
        <time>2013-08-16T08:32:44.430Z</time>
      </trkpt>
      <trkpt lat="45.5183" lon="6.70235">
        <ele>2268.3699968</ele>
        <time>2013-08-16T08:32:50.430Z</time>
      </trkpt>
      <trkpt lat="45.51821" lon="6.70237">
        <ele>2258.6849984</ele>
        <time>2013-08-16T08:33:01.430Z</time>
      </trkpt>
      <trkpt lat="45.51813" lon="6.70239">
        <ele>2254.69200128</ele>
        <time>2013-08-16T08:33:10.340Z</time>
      </trkpt>
      <trkpt lat="45.51805" lon="6.70242">
        <ele>2251.94799872</ele>
        <time>2013-08-16T08:33:21.430Z</time>
      </trkpt>
      <trkpt lat="45.51798" lon="6.70242">
        <ele>2249.18800128</ele>
        <time>2013-08-16T08:33:28.330Z</time>
      </trkpt>
      <trkpt lat="45.51791" lon="6.70242">
        <ele>2244.22</ele>
        <time>2013-08-16T08:33:40.360Z</time>
      </trkpt>
      <trkpt lat="45.51783" lon="6.70244">
        <ele>2236.9841884585</ele>
        <time>2013-08-16T08:33:56.430Z</time>
      </trkpt>
      <trkpt lat="45.51781" lon="6.70254">
        <ele>2234.0789480162</ele>
        <time>2013-08-16T08:34:08.410Z</time>
      </trkpt>
      <trkpt lat="45.51779" lon="6.70264">
        <ele>2232.05400064</ele>
        <time>2013-08-16T08:34:18.530Z</time>
      </trkpt>
      <trkpt lat="45.51773" lon="6.70262">
        <ele>2229.23400192</ele>
        <time>2013-08-16T08:34:23.410Z</time>
      </trkpt>
      <trkpt lat="45.51765" lon="6.70264">
        <ele>2224.96</ele>
        <time>2013-08-16T08:34:31.400Z</time>
      </trkpt>
      <trkpt lat="45.51758" lon="6.70262">
        <ele>2221.74799872</ele>
        <time>2013-08-16T08:34:39.430Z</time>
      </trkpt>
      <trkpt lat="45.51755" lon="6.70254">
        <ele>2219.74799872</ele>
        <time>2013-08-16T08:34:44.430Z</time>
      </trkpt>
      <trkpt lat="45.51754" lon="6.70247">
        <ele>2218.14799872</ele>
        <time>2013-08-16T08:34:48.430Z</time>
      </trkpt>
      <trkpt lat="45.51748" lon="6.70244">
        <ele>2215.67799808</ele>
        <time>2013-08-16T08:34:56.540Z</time>
      </trkpt>
      <trkpt lat="45.51744" lon="6.70237">
        <ele>2213.88100096</ele>
        <time>2013-08-16T08:35:02.530Z</time>
      </trkpt>
      <trkpt lat="45.5174" lon="6.70229">
        <ele>2212.41099904</ele>
        <time>2013-08-16T08:35:07.430Z</time>
      </trkpt>
      <trkpt lat="45.51735" lon="6.70224">
        <ele>2210.47399936</ele>
        <time>2013-08-16T08:35:16.430Z</time>
      </trkpt>
      <trkpt lat="45.51729" lon="6.7022">
        <ele>2205.57600256</ele>
        <time>2013-08-16T08:35:24.330Z</time>
      </trkpt>
      <trkpt lat="45.51722" lon="6.70218">
        <ele>2200.24299776</ele>
        <time>2013-08-16T08:35:31.310Z</time>
      </trkpt>
      <trkpt lat="45.51718" lon="6.70213">
        <ele>2196.74299776</ele>
        <time>2013-08-16T08:35:36.310Z</time>
      </trkpt>
      <trkpt lat="45.5171" lon="6.70212">
        <ele>2193.87399936</ele>
        <time>2013-08-16T08:35:44.430Z</time>
      </trkpt>
      <trkpt lat="45.51702" lon="6.70216">
        <ele>2190.34799872</ele>
        <time>2013-08-16T08:35:55.430Z</time>
      </trkpt>
      <trkpt lat="45.51697" lon="6.70225">
        <ele>2186.74699904</ele>
        <time>2013-08-16T08:36:06.310Z</time>
      </trkpt>
      <trkpt lat="45.51689" lon="6.70224">
        <ele>2182.85000448</ele>
        <time>2013-08-16T08:36:13.300Z</time>
      </trkpt>
      <trkpt lat="45.5168" lon="6.70222">
        <ele>2178.08200192</ele>
        <time>2013-08-16T08:36:20.330Z</time>
      </trkpt>
      <trkpt lat="45.51673" lon="6.70218">
        <ele>2172.79599872</ele>
        <time>2013-08-16T08:36:29.310Z</time>
      </trkpt>
      <trkpt lat="45.51668" lon="6.70215">
        <ele>2169.19599872</ele>
        <time>2013-08-16T08:36:38.310Z</time>
      </trkpt>
      <trkpt lat="45.51662" lon="6.70211">
        <ele>2166.841205438</ele>
        <time>2013-08-16T08:36:50.430Z</time>
      </trkpt>
      <trkpt lat="45.51659" lon="6.70204">
        <ele>2166.1376880763</ele>
        <time>2013-08-16T08:36:57.430Z</time>
      </trkpt>
      <trkpt lat="45.51651" lon="6.70203">
        <ele>2160.76200192</ele>
        <time>2013-08-16T08:37:07.530Z</time>
      </trkpt>
      <trkpt lat="45.51646" lon="6.70202">
        <ele>2156.55600128</ele>
        <time>2013-08-16T08:37:17.410Z</time>
      </trkpt>
      <trkpt lat="45.51639" lon="6.70202">
        <ele>2152</ele>
        <time>2013-08-16T08:37:41.330Z</time>
      </trkpt>
      <trkpt lat="45.51637" lon="6.70191">
        <ele>2150.856</ele>
        <time>2013-08-16T08:38:00.240Z</time>
      </trkpt>
      <trkpt lat="45.51638" lon="6.70181">
        <ele>2150.256</ele>
        <time>2013-08-16T08:38:06.240Z</time>
      </trkpt>
      <trkpt lat="45.51641" lon="6.7017">
        <ele>2149.90000128</ele>
        <time>2013-08-16T08:38:09.300Z</time>
      </trkpt>
      <trkpt lat="45.51645" lon="6.70159">
        <ele>2149.29999872</ele>
        <time>2013-08-16T08:38:12.300Z</time>
      </trkpt>
      <trkpt lat="45.51651" lon="6.70147">
        <ele>2148.70000128</ele>
        <time>2013-08-16T08:38:15.300Z</time>
      </trkpt>
      <trkpt lat="45.51654" lon="6.70136">
        <ele>2147.04700032</ele>
        <time>2013-08-16T08:38:28.330Z</time>
      </trkpt>
      <trkpt lat="45.51657" lon="6.70124">
        <ele>2146.62700032</ele>
        <time>2013-08-16T08:38:32.530Z</time>
      </trkpt>
      <trkpt lat="45.51659" lon="6.70113">
        <ele>2146.32700032</ele>
        <time>2013-08-16T08:38:35.530Z</time>
      </trkpt>
      <trkpt lat="45.51663" lon="6.70099">
        <ele>2145.72400128</ele>
        <time>2013-08-16T08:38:39.490Z</time>
      </trkpt>
      <trkpt lat="45.51668" lon="6.70087">
        <ele>2143.32400128</ele>
        <time>2013-08-16T08:38:45.490Z</time>
      </trkpt>
      <trkpt lat="45.51672" lon="6.70076">
        <ele>2142</ele>
        <time>2013-08-16T08:38:50.410Z</time>
      </trkpt>
      <trkpt lat="45.51677" lon="6.70068">
        <ele>2142</ele>
        <time>2013-08-16T08:38:53.410Z</time>
      </trkpt>
      <trkpt lat="45.51679" lon="6.70054">
        <ele>2142</ele>
        <time>2013-08-16T08:38:57.410Z</time>
      </trkpt>
      <trkpt lat="45.51687" lon="6.70033">
        <ele>2139.1350016</ele>
        <time>2013-08-16T08:39:04.530Z</time>
      </trkpt>
      <trkpt lat="45.51692" lon="6.70025">
        <ele>2137.6350016</ele>
        <time>2013-08-16T08:39:07.530Z</time>
      </trkpt>
      <trkpt lat="45.51698" lon="6.70015">
        <ele>2136.67800064</ele>
        <time>2013-08-16T08:39:10.410Z</time>
      </trkpt>
      <trkpt lat="45.51702" lon="6.70001">
        <ele>2135.87800064</ele>
        <time>2013-08-16T08:39:14.410Z</time>
      </trkpt>
      <trkpt lat="45.51707" lon="6.69989">
        <ele>2135.07800064</ele>
        <time>2013-08-16T08:39:18.410Z</time>
      </trkpt>
      <trkpt lat="45.51717" lon="6.69968">
        <ele>2134.32700032</ele>
        <time>2013-08-16T08:39:25.530Z</time>
      </trkpt>
      <trkpt lat="45.51729" lon="6.69948">
        <ele>2133.0587068048</ele>
        <time>2013-08-16T08:39:33.530Z</time>
      </trkpt>
      <trkpt lat="45.51735" lon="6.69936">
        <ele>2130.8984928166</ele>
        <time>2013-08-16T08:39:44.330Z</time>
      </trkpt>
      <trkpt lat="45.51748" lon="6.69927">
        <ele>2128.87399936</ele>
        <time>2013-08-16T08:39:54.430Z</time>
      </trkpt>
      <trkpt lat="45.51764" lon="6.69925">
        <ele>2134</ele>
        <time>2013-08-16T08:40:12.330Z</time>
      </trkpt>
      <trkpt lat="45.51769" lon="6.69923">
        <ele>2134</ele>
        <time>2013-08-16T08:40:18.330Z</time>
      </trkpt>
      <trkpt lat="45.51778" lon="6.69911">
        <ele>2133.0750740901</ele>
        <time>2013-08-16T08:40:23.430Z</time>
      </trkpt>
      <trkpt lat="45.51789" lon="6.69896">
        <ele>2131.93699968</ele>
        <time>2013-08-16T08:40:29.430Z</time>
      </trkpt>
      <trkpt lat="45.51804" lon="6.69883">
        <ele>2131.23699968</ele>
        <time>2013-08-16T08:40:36.430Z</time>
      </trkpt>
      <trkpt lat="45.5181" lon="6.69878">
        <ele>2130</ele>
        <time>2013-08-16T08:40:50.530Z</time>
      </trkpt>
      <trkpt lat="45.51817" lon="6.69874">
        <ele>2130</ele>
        <time>2013-08-16T08:40:53.430Z</time>
      </trkpt>
      <trkpt lat="45.51832" lon="6.69863">
        <ele>2130</ele>
        <time>2013-08-16T08:41:01.300Z</time>
      </trkpt>
      <trkpt lat="45.51837" lon="6.69856">
        <ele>2130</ele>
        <time>2013-08-16T08:41:06.300Z</time>
      </trkpt>
      <trkpt lat="45.51841" lon="6.69849">
        <ele>2130</ele>
        <time>2013-08-16T08:41:11.300Z</time>
      </trkpt>
      <trkpt lat="45.51846" lon="6.69842">
        <ele>2130</ele>
        <time>2013-08-16T08:41:14.310Z</time>
      </trkpt>
      <trkpt lat="45.51849" lon="6.69834">
        <ele>2130</ele>
        <time>2013-08-16T08:41:17.300Z</time>
      </trkpt>
      <trkpt lat="45.51856" lon="6.69828">
        <ele>2129.6743249309</ele>
        <time>2013-08-16T08:41:20.430Z</time>
      </trkpt>
      <trkpt lat="45.51862" lon="6.69823">
        <ele>2129.0549453922</ele>
        <time>2013-08-16T08:41:23.530Z</time>
      </trkpt>
      <trkpt lat="45.51867" lon="6.69815">
        <ele>2128.2557443375</ele>
        <time>2013-08-16T08:41:27.530Z</time>
      </trkpt>
      <trkpt lat="45.51872" lon="6.69808">
        <ele>2127.7312252964</ele>
        <time>2013-08-16T08:41:31.530Z</time>
      </trkpt>
      <trkpt lat="45.51875" lon="6.69799">
        <ele>2127.3280632411</ele>
        <time>2013-08-16T08:41:35.610Z</time>
      </trkpt>
      <trkpt lat="45.51879" lon="6.69791">
        <ele>2127</ele>
        <time>2013-08-16T08:41:41.530Z</time>
      </trkpt>
      <trkpt lat="45.51882" lon="6.69783">
        <ele>2127</ele>
        <time>2013-08-16T08:41:46.530Z</time>
      </trkpt>
      <trkpt lat="45.51887" lon="6.69777">
        <ele>2127.26300032</ele>
        <time>2013-08-16T08:41:51.430Z</time>
      </trkpt>
      <trkpt lat="45.51893" lon="6.69772">
        <ele>2127.76300032</ele>
        <time>2013-08-16T08:41:56.430Z</time>
      </trkpt>
      <trkpt lat="45.51898" lon="6.69768">
        <ele>2128.6993022016</ele>
        <time>2013-08-16T08:42:02.300Z</time>
      </trkpt>
      <trkpt lat="45.51903" lon="6.69761">
        <ele>2129.9180825313</ele>
        <time>2013-08-16T08:42:08.400Z</time>
      </trkpt>
      <trkpt lat="45.51907" lon="6.69756">
        <ele>2130.6726724572</ele>
        <time>2013-08-16T08:42:15.530Z</time>
      </trkpt>
      <trkpt lat="45.5191" lon="6.69747">
        <ele>2131.7592045402</ele>
        <time>2013-08-16T08:42:26.430Z</time>
      </trkpt>
      <trkpt lat="45.51912" lon="6.69739">
        <ele>2130</ele>
        <time>2013-08-16T08:42:51.220Z</time>
      </trkpt>
      <trkpt lat="45.51916" lon="6.69728">
        <ele>2130</ele>
        <time>2013-08-16T08:42:57.220Z</time>
      </trkpt>
      <trkpt lat="45.51922" lon="6.69719">
        <ele>2129.4731511333</ele>
        <time>2013-08-16T08:43:01.530Z</time>
      </trkpt>
      <trkpt lat="45.51931" lon="6.69708">
        <ele>2128.4782166636</ele>
        <time>2013-08-16T08:43:06.440Z</time>
      </trkpt>
      <trkpt lat="45.51938" lon="6.69696">
        <ele>2127.29999872</ele>
        <time>2013-08-16T08:43:12.300Z</time>
      </trkpt>
      <trkpt lat="45.51944" lon="6.69681">
        <ele>2125.2350016</ele>
        <time>2013-08-16T08:43:20.330Z</time>
      </trkpt>
      <trkpt lat="45.51953" lon="6.69675">
        <ele>2120.84999936</ele>
        <time>2013-08-16T08:43:30.300Z</time>
      </trkpt>
      <trkpt lat="45.51962" lon="6.6966">
        <ele>2114.72900224</ele>
        <time>2013-08-16T08:43:46.330Z</time>
      </trkpt>
      <trkpt lat="45.5198" lon="6.69647">
        <ele>2113</ele>
        <time>2013-08-16T08:43:56.530Z</time>
      </trkpt>
      <trkpt lat="45.51995" lon="6.69632">
        <ele>2111.47800064</ele>
        <time>2013-08-16T08:44:06.410Z</time>
      </trkpt>
      <trkpt lat="45.52007" lon="6.69615">
        <ele>2109.88</ele>
        <time>2013-08-16T08:44:14.400Z</time>
      </trkpt>
      <trkpt lat="45.52021" lon="6.69598">
        <ele>2107.7350016</ele>
        <time>2013-08-16T08:44:21.330Z</time>
      </trkpt>
      <trkpt lat="45.52038" lon="6.69582">
        <ele>2104.1849984</ele>
        <time>2013-08-16T08:44:28.430Z</time>
      </trkpt>
      <trkpt lat="45.52055" lon="6.69566">
        <ele>2100.1350016</ele>
        <time>2013-08-16T08:44:36.530Z</time>
      </trkpt>
      <trkpt lat="45.52069" lon="6.69551">
        <ele>2097.50800128</ele>
        <time>2013-08-16T08:44:42.530Z</time>
      </trkpt>
      <trkpt lat="45.52082" lon="6.69537">
        <ele>2095.14799872</ele>
        <time>2013-08-16T08:44:48.430Z</time>
      </trkpt>
      <trkpt lat="45.52096" lon="6.69523">
        <ele>2092.34799872</ele>
        <time>2013-08-16T08:44:55.430Z</time>
      </trkpt>
      <trkpt lat="45.52111" lon="6.69509">
        <ele>2090.08</ele>
        <time>2013-08-16T08:45:03.400Z</time>
      </trkpt>
      <trkpt lat="45.52123" lon="6.69486">
        <ele>2088.1412929405</ele>
        <time>2013-08-16T08:45:17.430Z</time>
      </trkpt>
      <trkpt lat="45.52138" lon="6.69471">
        <ele>2085.7206037482</ele>
        <time>2013-08-16T08:45:26.410Z</time>
      </trkpt>
      <trkpt lat="45.52154" lon="6.69458">
        <ele>2086.54599936</ele>
        <time>2013-08-16T08:45:36.530Z</time>
      </trkpt>
      <trkpt lat="45.52172" lon="6.69445">
        <ele>2087.87299968</ele>
        <time>2013-08-16T08:45:47.530Z</time>
      </trkpt>
      <trkpt lat="45.52187" lon="6.69425">
        <ele>2088</ele>
        <time>2013-08-16T08:45:54.430Z</time>
      </trkpt>
      <trkpt lat="45.52202" lon="6.6941">
        <ele>2088.3546104625</ele>
        <time>2013-08-16T08:46:02.430Z</time>
      </trkpt>
      <trkpt lat="45.52219" lon="6.69399">
        <ele>2091.06099968</ele>
        <time>2013-08-16T08:46:19.410Z</time>
      </trkpt>
      <trkpt lat="45.52235" lon="6.69385">
        <ele>2092</ele>
        <time>2013-08-16T08:46:31.430Z</time>
      </trkpt>
      <trkpt lat="45.52251" lon="6.69372">
        <ele>2091.95399936</ele>
        <time>2013-08-16T08:46:39.260Z</time>
      </trkpt>
      <trkpt lat="45.52266" lon="6.69355">
        <ele>2088.83400192</ele>
        <time>2013-08-16T08:46:52.410Z</time>
      </trkpt>
      <trkpt lat="45.52283" lon="6.69344">
        <ele>2085</ele>
        <time>2013-08-16T08:47:01.400Z</time>
      </trkpt>
      <trkpt lat="45.52298" lon="6.69327">
        <ele>2084.2441738621</ele>
        <time>2013-08-16T08:47:16.390Z</time>
      </trkpt>
      <trkpt lat="45.52309" lon="6.69314">
        <ele>2083.64600064</ele>
        <time>2013-08-16T08:47:22.340Z</time>
      </trkpt>
      <trkpt lat="45.52324" lon="6.69299">
        <ele>2083</ele>
        <time>2013-08-16T08:47:31.530Z</time>
      </trkpt>
      <trkpt lat="45.52332" lon="6.69288">
        <ele>2083</ele>
        <time>2013-08-16T08:47:37.530Z</time>
      </trkpt>
      <trkpt lat="45.52339" lon="6.69277">
        <ele>2082.25400064</ele>
        <time>2013-08-16T08:47:42.530Z</time>
      </trkpt>
      <trkpt lat="45.52346" lon="6.69265">
        <ele>2081.25400064</ele>
        <time>2013-08-16T08:47:47.530Z</time>
      </trkpt>
      <trkpt lat="45.52354" lon="6.69255">
        <ele>2077.75899776</ele>
        <time>2013-08-16T08:47:53.430Z</time>
      </trkpt>
      <trkpt lat="45.52356" lon="6.69235">
        <ele>2071.2776110735</ele>
        <time>2013-08-16T08:48:03.360Z</time>
      </trkpt>
      <trkpt lat="45.52363" lon="6.69217">
        <ele>2066.9567823255</ele>
        <time>2013-08-16T08:48:12.310Z</time>
      </trkpt>
      <trkpt lat="45.52363" lon="6.69196">
        <ele>2064.08200192</ele>
        <time>2013-08-16T08:48:20.330Z</time>
      </trkpt>
      <trkpt lat="45.52351" lon="6.6921">
        <ele>2055.2350016</ele>
        <time>2013-08-16T08:48:36.330Z</time>
      </trkpt>
      <trkpt lat="45.52335" lon="6.69206">
        <ele>2051.82199808</ele>
        <time>2013-08-16T08:48:42.430Z</time>
      </trkpt>
      <trkpt lat="45.52334" lon="6.69182">
        <ele>2047.30800128</ele>
        <time>2013-08-16T08:48:50.530Z</time>
      </trkpt>
      <trkpt lat="45.52336" lon="6.6916">
        <ele>2044.10800128</ele>
        <time>2013-08-16T08:48:58.530Z</time>
      </trkpt>
      <trkpt lat="45.52338" lon="6.69146">
        <ele>2040.62199808</ele>
        <time>2013-08-16T08:49:04.430Z</time>
      </trkpt>
      <trkpt lat="45.52343" lon="6.69131">
        <ele>2036.2499968</ele>
        <time>2013-08-16T08:49:12.300Z</time>
      </trkpt>
      <trkpt lat="45.52342" lon="6.69106">
        <ele>2024.4700032</ele>
        <time>2013-08-16T08:49:27.330Z</time>
      </trkpt>
      <trkpt lat="45.52344" lon="6.69079">
        <ele>2016.01600256</ele>
        <time>2013-08-16T08:49:37.530Z</time>
      </trkpt>
      <trkpt lat="45.5235" lon="6.69065">
        <ele>2013</ele>
        <time>2013-08-16T08:49:55.400Z</time>
      </trkpt>
      <trkpt lat="45.5235" lon="6.69049">
        <ele>2012.23699968</ele>
        <time>2013-08-16T08:50:06.430Z</time>
      </trkpt>
      <trkpt lat="45.52354" lon="6.6903">
        <ele>2008.14299776</ele>
        <time>2013-08-16T08:50:14.310Z</time>
      </trkpt>
      <trkpt lat="45.52361" lon="6.69011">
        <ele>2002.72300288</ele>
        <time>2013-08-16T08:50:21.330Z</time>
      </trkpt>
      <trkpt lat="45.52367" lon="6.68995">
        <ele>1997.32300288</ele>
        <time>2013-08-16T08:50:27.330Z</time>
      </trkpt>
      <trkpt lat="45.52376" lon="6.68979">
        <ele>1994.87399936</ele>
        <time>2013-08-16T08:50:34.430Z</time>
      </trkpt>
      <trkpt lat="45.52387" lon="6.68963">
        <ele>1994.26300032</ele>
        <time>2013-08-16T08:50:41.430Z</time>
      </trkpt>
      <trkpt lat="45.5239" lon="6.68946">
        <ele>1995</ele>
        <time>2013-08-16T08:50:49.300Z</time>
      </trkpt>
      <trkpt lat="45.52398" lon="6.68925">
        <ele>1995</ele>
        <time>2013-08-16T08:50:59.430Z</time>
      </trkpt>
      <trkpt lat="45.52403" lon="6.68909">
        <ele>1995</ele>
        <time>2013-08-16T08:51:06.430Z</time>
      </trkpt>
      <trkpt lat="45.52401" lon="6.6889">
        <ele>1990.3489100051</ele>
        <time>2013-08-16T08:51:25.530Z</time>
      </trkpt>
      <trkpt lat="45.5241" lon="6.68874">
        <ele>1988.3313315455</ele>
        <time>2013-08-16T08:51:45.490Z</time>
      </trkpt>
      <trkpt lat="45.52421" lon="6.68858">
        <ele>1984.68900224</ele>
        <time>2013-08-16T08:51:53.530Z</time>
      </trkpt>
      <trkpt lat="45.52424" lon="6.68843">
        <ele>1981.18900224</ele>
        <time>2013-08-16T08:51:58.530Z</time>
      </trkpt>
      <trkpt lat="45.52429" lon="6.68824">
        <ele>1976.41600256</ele>
        <time>2013-08-16T08:52:04.530Z</time>
      </trkpt>
      <trkpt lat="45.52437" lon="6.68806">
        <ele>1972.1849984</ele>
        <time>2013-08-16T08:52:10.430Z</time>
      </trkpt>
      <trkpt lat="45.52444" lon="6.68787">
        <ele>1969.6849984</ele>
        <time>2013-08-16T08:52:15.430Z</time>
      </trkpt>
      <trkpt lat="45.52451" lon="6.68772">
        <ele>1967.424</ele>
        <time>2013-08-16T08:52:20.240Z</time>
      </trkpt>
      <trkpt lat="45.52459" lon="6.68757">
        <ele>1965.424</ele>
        <time>2013-08-16T08:52:25.240Z</time>
      </trkpt>
      <trkpt lat="45.52471" lon="6.68745">
        <ele>1963.47399936</ele>
        <time>2013-08-16T08:52:31.430Z</time>
      </trkpt>
      <trkpt lat="45.5248" lon="6.68733">
        <ele>1962.07399936</ele>
        <time>2013-08-16T08:52:38.430Z</time>
      </trkpt>
      <trkpt lat="45.52485" lon="6.68715">
        <ele>1959.71099904</ele>
        <time>2013-08-16T08:52:46.430Z</time>
      </trkpt>
      <trkpt lat="45.52499" lon="6.68715">
        <ele>1958.53699968</ele>
        <time>2013-08-16T08:52:53.430Z</time>
      </trkpt>
      <trkpt lat="45.52512" lon="6.68725">
        <ele>1958.03699968</ele>
        <time>2013-08-16T08:52:58.430Z</time>
      </trkpt>
      <trkpt lat="45.52522" lon="6.68738">
        <ele>1954.73299712</ele>
        <time>2013-08-16T08:53:02.430Z</time>
      </trkpt>
      <trkpt lat="45.52527" lon="6.68763">
        <ele>1948.8491504813</ele>
        <time>2013-08-16T08:53:10.310Z</time>
      </trkpt>
      <trkpt lat="45.52526" lon="6.68789">
        <ele>1948.1498495584</ele>
        <time>2013-08-16T08:53:17.310Z</time>
      </trkpt>
      <trkpt lat="45.52529" lon="6.68814">
        <ele>1947.1371367729</ele>
        <time>2013-08-16T08:53:27.430Z</time>
      </trkpt>
      <trkpt lat="45.52531" lon="6.68837">
        <ele>1940.89599744</ele>
        <time>2013-08-16T08:53:36.430Z</time>
      </trkpt>
      <trkpt lat="45.52536" lon="6.68858">
        <ele>1935.2302355731</ele>
        <time>2013-08-16T08:53:46.430Z</time>
      </trkpt>
      <trkpt lat="45.52545" lon="6.68874">
        <ele>1932.3269221053</ele>
        <time>2013-08-16T08:53:54.430Z</time>
      </trkpt>
      <trkpt lat="45.52553" lon="6.68889">
        <ele>1929</ele>
        <time>2013-08-16T08:54:18.530Z</time>
      </trkpt>
      <trkpt lat="45.5256" lon="6.689">
        <ele>1928.22700032</ele>
        <time>2013-08-16T08:54:26.530Z</time>
      </trkpt>
      <trkpt lat="45.52572" lon="6.68909">
        <ele>1927.52700032</ele>
        <time>2013-08-16T08:54:33.530Z</time>
      </trkpt>
      <trkpt lat="45.52585" lon="6.68914">
        <ele>1927.17299968</ele>
        <time>2013-08-16T08:54:40.530Z</time>
      </trkpt>
      <trkpt lat="45.52601" lon="6.6893">
        <ele>1927.86300032</ele>
        <time>2013-08-16T08:54:47.430Z</time>
      </trkpt>
      <trkpt lat="45.52617" lon="6.68941">
        <ele>1928.65100032</ele>
        <time>2013-08-16T08:54:55.310Z</time>
      </trkpt>
      <trkpt lat="45.52625" lon="6.68944">
        <ele>1929.0529467502</ele>
        <time>2013-08-16T08:54:59.330Z</time>
      </trkpt>
      <trkpt lat="45.52634" lon="6.68957">
        <ele>1929.5524474094</ele>
        <time>2013-08-16T08:55:04.330Z</time>
      </trkpt>
      <trkpt lat="45.52641" lon="6.6897">
        <ele>1929.9520479367</ele>
        <time>2013-08-16T08:55:08.330Z</time>
      </trkpt>
      <trkpt lat="45.52646" lon="6.68984">
        <ele>1930.662663091</ele>
        <time>2013-08-16T08:55:15.430Z</time>
      </trkpt>
      <trkpt lat="45.52649" lon="6.68994">
        <ele>1931</ele>
        <time>2013-08-16T08:55:23.300Z</time>
      </trkpt>
      <trkpt lat="45.52655" lon="6.69002">
        <ele>1931.76300032</ele>
        <time>2013-08-16T08:55:36.430Z</time>
      </trkpt>
      <trkpt lat="45.52663" lon="6.69015">
        <ele>1932</ele>
        <time>2013-08-16T08:55:42.430Z</time>
      </trkpt>
      <trkpt lat="45.52673" lon="6.69027">
        <ele>1932</ele>
        <time>2013-08-16T08:55:46.530Z</time>
      </trkpt>
      <trkpt lat="45.52681" lon="6.69036">
        <ele>1931.83699968</ele>
        <time>2013-08-16T08:55:50.430Z</time>
      </trkpt>
      <trkpt lat="45.52691" lon="6.69046">
        <ele>1931.43699968</ele>
        <time>2013-08-16T08:55:54.430Z</time>
      </trkpt>
      <trkpt lat="45.527" lon="6.69054">
        <ele>1931.03699968</ele>
        <time>2013-08-16T08:55:58.430Z</time>
      </trkpt>
      <trkpt lat="45.5271" lon="6.69068">
        <ele>1928.6849984</ele>
        <time>2013-08-16T08:56:03.430Z</time>
      </trkpt>
      <trkpt lat="45.52718" lon="6.69082">
        <ele>1927.1849984</ele>
        <time>2013-08-16T08:56:06.430Z</time>
      </trkpt>
      <trkpt lat="45.52725" lon="6.69096">
        <ele>1925.5594381808</ele>
        <time>2013-08-16T08:56:09.430Z</time>
      </trkpt>
      <trkpt lat="45.52732" lon="6.69108">
        <ele>1923.4615354123</ele>
        <time>2013-08-16T08:56:12.430Z</time>
      </trkpt>
      <trkpt lat="45.52741" lon="6.69126">
        <ele>1919.965030798</ele>
        <time>2013-08-16T08:56:17.430Z</time>
      </trkpt>
      <trkpt lat="45.52748" lon="6.69142">
        <ele>1917.4264230866</ele>
        <time>2013-08-16T08:56:21.430Z</time>
      </trkpt>
      <trkpt lat="45.52757" lon="6.69157">
        <ele>1915.0240214538</ele>
        <time>2013-08-16T08:56:25.430Z</time>
      </trkpt>
      <trkpt lat="45.52768" lon="6.69174">
        <ele>1911.9239120949</ele>
        <time>2013-08-16T08:56:32.430Z</time>
      </trkpt>
      <trkpt lat="45.52781" lon="6.69186">
        <ele>1910.1156135968</ele>
        <time>2013-08-16T08:56:38.530Z</time>
      </trkpt>
      <trkpt lat="45.52793" lon="6.69192">
        <ele>1908.7815987969</ele>
        <time>2013-08-16T08:56:41.330Z</time>
      </trkpt>
      <trkpt lat="45.52808" lon="6.69199">
        <ele>1906.2537921145</ele>
        <time>2013-08-16T08:56:46.330Z</time>
      </trkpt>
      <trkpt lat="45.52822" lon="6.692">
        <ele>1903.6986991155</ele>
        <time>2013-08-16T08:56:51.410Z</time>
      </trkpt>
      <trkpt lat="45.52838" lon="6.69199">
        <ele>1900.6956970744</ele>
        <time>2013-08-16T08:56:57.410Z</time>
      </trkpt>
      <trkpt lat="45.52851" lon="6.69199">
        <ele>1897.38900224</ele>
        <time>2013-08-16T08:57:02.530Z</time>
      </trkpt>
      <trkpt lat="45.52865" lon="6.69201">
        <ele>1894.65899776</ele>
        <time>2013-08-16T08:57:06.430Z</time>
      </trkpt>
      <trkpt lat="45.5288" lon="6.69206">
        <ele>1891.9625240473</ele>
        <time>2013-08-16T08:57:11.430Z</time>
      </trkpt>
      <trkpt lat="45.52894" lon="6.69211">
        <ele>1890.384615773</ele>
        <time>2013-08-16T08:57:15.430Z</time>
      </trkpt>
      <trkpt lat="45.52908" lon="6.69216">
        <ele>1887.1612632284</ele>
        <time>2013-08-16T08:57:21.530Z</time>
      </trkpt>
      <trkpt lat="45.52922" lon="6.69221">
        <ele>1883.611565184</ele>
        <time>2013-08-16T08:57:26.530Z</time>
      </trkpt>
      <trkpt lat="45.52935" lon="6.69231">
        <ele>1879.38900224</ele>
        <time>2013-08-16T08:57:32.530Z</time>
      </trkpt>
      <trkpt lat="45.52948" lon="6.6924">
        <ele>1875.88900224</ele>
        <time>2013-08-16T08:57:37.530Z</time>
      </trkpt>
      <trkpt lat="45.52959" lon="6.6925">
        <ele>1874.47399936</ele>
        <time>2013-08-16T08:57:41.430Z</time>
      </trkpt>
      <trkpt lat="45.52971" lon="6.69259">
        <ele>1873.67399936</ele>
        <time>2013-08-16T08:57:45.430Z</time>
      </trkpt>
      <trkpt lat="45.52982" lon="6.69265">
        <ele>1872.89400064</ele>
        <time>2013-08-16T08:57:49.330Z</time>
      </trkpt>
      <trkpt lat="45.52978" lon="6.69242">
        <ele>1865.82299904</ele>
        <time>2013-08-16T08:58:09.390Z</time>
      </trkpt>
      <trkpt lat="45.52976" lon="6.69221">
        <ele>1864.32299904</ele>
        <time>2013-08-16T08:58:14.390Z</time>
      </trkpt>
      <trkpt lat="45.52994" lon="6.69224">
        <ele>1861.16</ele>
        <time>2013-08-16T08:58:23.400Z</time>
      </trkpt>
      <trkpt lat="45.53012" lon="6.69225">
        <ele>1858.6350016</ele>
        <time>2013-08-16T08:58:29.530Z</time>
      </trkpt>
      <trkpt lat="45.53023" lon="6.69225">
        <ele>1856.6350016</ele>
        <time>2013-08-16T08:58:33.530Z</time>
      </trkpt>
      <trkpt lat="45.53035" lon="6.69224">
        <ele>1853.07399936</ele>
        <time>2013-08-16T08:58:43.430Z</time>
      </trkpt>
      <trkpt lat="45.53048" lon="6.69221">
        <ele>1851.51700096</ele>
        <time>2013-08-16T08:58:50.410Z</time>
      </trkpt>
      <trkpt lat="45.53062" lon="6.69228">
        <ele>1849.71700096</ele>
        <time>2013-08-16T08:58:56.410Z</time>
      </trkpt>
      <trkpt lat="45.53079" lon="6.69231">
        <ele>1848.32700032</ele>
        <time>2013-08-16T08:59:05.530Z</time>
      </trkpt>
      <trkpt lat="45.53077" lon="6.69206">
        <ele>1843.36200192</ele>
        <time>2013-08-16T08:59:16.530Z</time>
      </trkpt>
      <trkpt lat="45.53067" lon="6.69183">
        <ele>1840.6268652344</ele>
        <time>2013-08-16T08:59:23.400Z</time>
      </trkpt>
      <trkpt lat="45.53064" lon="6.69161">
        <ele>1838.8150728635</ele>
        <time>2013-08-16T08:59:29.310Z</time>
      </trkpt>
      <trkpt lat="45.53063" lon="6.69139">
        <ele>1836.7648248395</ele>
        <time>2013-08-16T08:59:34.410Z</time>
      </trkpt>
      <trkpt lat="45.53069" lon="6.69114">
        <ele>1834.73699968</ele>
        <time>2013-08-16T08:59:41.430Z</time>
      </trkpt>
      <trkpt lat="45.53071" lon="6.69088">
        <ele>1830.82900224</ele>
        <time>2013-08-16T08:59:53.330Z</time>
      </trkpt>
      <trkpt lat="45.5306" lon="6.6907">
        <ele>1826.69399808</ele>
        <time>2013-08-16T08:59:59.310Z</time>
      </trkpt>
      <trkpt lat="45.53051" lon="6.69046">
        <ele>1820.51099904</ele>
        <time>2013-08-16T09:00:10.430Z</time>
      </trkpt>
      <trkpt lat="45.53058" lon="6.6902">
        <ele>1817.81099904</ele>
        <time>2013-08-16T09:00:19.430Z</time>
      </trkpt>
      <trkpt lat="45.53074" lon="6.69028">
        <ele>1815</ele>
        <time>2013-08-16T09:00:31.330Z</time>
      </trkpt>
      <trkpt lat="45.53092" lon="6.69033">
        <ele>1815</ele>
        <time>2013-08-16T09:00:37.430Z</time>
      </trkpt>
      <trkpt lat="45.53102" lon="6.69035">
        <ele>1813.43400192</ele>
        <time>2013-08-16T09:00:41.410Z</time>
      </trkpt>
      <trkpt lat="45.53108" lon="6.69019">
        <ele>1808.34</ele>
        <time>2013-08-16T09:00:55.400Z</time>
      </trkpt>
      <trkpt lat="45.53121" lon="6.69028">
        <ele>1808</ele>
        <time>2013-08-16T09:01:09.410Z</time>
      </trkpt>
      <trkpt lat="45.5313" lon="6.69038">
        <ele>1808</ele>
        <time>2013-08-16T09:01:13.420Z</time>
      </trkpt>
      <trkpt lat="45.53138" lon="6.69044">
        <ele>1808</ele>
        <time>2013-08-16T09:01:16.410Z</time>
      </trkpt>
      <trkpt lat="45.53145" lon="6.6905">
        <ele>1807.8511478445</ele>
        <time>2013-08-16T09:01:20.300Z</time>
      </trkpt>
      <trkpt lat="45.53157" lon="6.69065">
        <ele>1807.1513028288</ele>
        <time>2013-08-16T09:01:30.330Z</time>
      </trkpt>
      <trkpt lat="45.53176" lon="6.6907">
        <ele>1807.8941064996</ele>
        <time>2013-08-16T09:01:39.330Z</time>
      </trkpt>
      <trkpt lat="45.5319" lon="6.69083">
        <ele>1806.4955046539</ele>
        <time>2013-08-16T09:01:46.330Z</time>
      </trkpt>
      <trkpt lat="45.53205" lon="6.69094">
        <ele>1805.2966593027</ele>
        <time>2013-08-16T09:01:52.390Z</time>
      </trkpt>
      <trkpt lat="45.53219" lon="6.69099">
        <ele>1802.3058118021</ele>
        <time>2013-08-16T09:02:04.530Z</time>
      </trkpt>
      <trkpt lat="45.53228" lon="6.69112">
        <ele>1801</ele>
        <time>2013-08-16T09:02:22.330Z</time>
      </trkpt>
      <trkpt lat="45.53234" lon="6.69128">
        <ele>1802</ele>
        <time>2013-08-16T09:02:39.430Z</time>
      </trkpt>
      <trkpt lat="45.53239" lon="6.69146">
        <ele>1802</ele>
        <time>2013-08-16T09:02:45.430Z</time>
      </trkpt>
      <trkpt lat="45.53245" lon="6.69164">
        <ele>1801.0273559385</ele>
        <time>2013-08-16T09:02:50.530Z</time>
      </trkpt>
      <trkpt lat="45.53254" lon="6.69176">
        <ele>1796.7720381691</ele>
        <time>2013-08-16T09:02:57.530Z</time>
      </trkpt>
      <trkpt lat="45.53269" lon="6.69193">
        <ele>1792.2029268926</ele>
        <time>2013-08-16T09:03:08.530Z</time>
      </trkpt>
      <trkpt lat="45.53285" lon="6.69197">
        <ele>1789.3907700871</ele>
        <time>2013-08-16T09:03:17.530Z</time>
      </trkpt>
      <trkpt lat="45.533" lon="6.69187">
        <ele>1786.16200192</ele>
        <time>2013-08-16T09:03:23.530Z</time>
      </trkpt>
      <trkpt lat="45.53315" lon="6.69179">
        <ele>1783.82199808</ele>
        <time>2013-08-16T09:03:27.430Z</time>
      </trkpt>
      <trkpt lat="45.53328" lon="6.69175">
        <ele>1781.54799872</ele>
        <time>2013-08-16T09:03:32.430Z</time>
      </trkpt>
      <trkpt lat="45.53337" lon="6.6915">
        <ele>1767.91099904</ele>
        <time>2013-08-16T09:04:12.430Z</time>
      </trkpt>
      <trkpt lat="45.53321" lon="6.69139">
        <ele>1765.26199808</ele>
        <time>2013-08-16T09:04:21.260Z</time>
      </trkpt>
      <trkpt lat="45.53305" lon="6.69135">
        <ele>1764.06199808</ele>
        <time>2013-08-16T09:04:25.260Z</time>
      </trkpt>
      <trkpt lat="45.5329" lon="6.69121">
        <ele>1762.65000448</ele>
        <time>2013-08-16T09:04:29.300Z</time>
      </trkpt>
      <trkpt lat="45.53289" lon="6.69096">
        <ele>1759.14999552</ele>
        <time>2013-08-16T09:04:34.300Z</time>
      </trkpt>
      <trkpt lat="45.53286" lon="6.69075">
        <ele>1755.8448789369</ele>
        <time>2013-08-16T09:04:39.330Z</time>
      </trkpt>
      <trkpt lat="45.53284" lon="6.69057">
        <ele>1754.6741468641</ele>
        <time>2013-08-16T09:04:43.330Z</time>
      </trkpt>
      <trkpt lat="45.53278" lon="6.69041">
        <ele>1753.5034147913</ele>
        <time>2013-08-16T09:04:47.330Z</time>
      </trkpt>
      <trkpt lat="45.53286" lon="6.69022">
        <ele>1750.4528495595</ele>
        <time>2013-08-16T09:05:44.430Z</time>
      </trkpt>
      <trkpt lat="45.53299" lon="6.69005">
        <ele>1750.03834165</ele>
        <time>2013-08-16T09:05:48.430Z</time>
      </trkpt>
      <trkpt lat="45.53307" lon="6.68985">
        <ele>1749.52700032</ele>
        <time>2013-08-16T09:05:53.530Z</time>
      </trkpt>
      <trkpt lat="45.533" lon="6.68962">
        <ele>1747.7519404651</ele>
        <time>2013-08-16T09:06:00.410Z</time>
      </trkpt>
      <trkpt lat="45.53293" lon="6.68939">
        <ele>1743.178292093</ele>
        <time>2013-08-16T09:06:06.310Z</time>
      </trkpt>
      <trkpt lat="45.5329" lon="6.68916">
        <ele>1741</ele>
        <time>2013-08-16T09:06:11.430Z</time>
      </trkpt>
      <trkpt lat="45.53289" lon="6.68895">
        <ele>1741</ele>
        <time>2013-08-16T09:06:15.430Z</time>
      </trkpt>
      <trkpt lat="45.53292" lon="6.68877">
        <ele>1740.93699968</ele>
        <time>2013-08-16T09:06:19.430Z</time>
      </trkpt>
      <trkpt lat="45.53294" lon="6.68862">
        <ele>1740.54700032</ele>
        <time>2013-08-16T09:06:23.330Z</time>
      </trkpt>
      <trkpt lat="45.53305" lon="6.68857">
        <ele>1737.2449984</ele>
        <time>2013-08-16T09:06:34.310Z</time>
      </trkpt>
      <trkpt lat="45.53321" lon="6.68845">
        <ele>1732.79999744</ele>
        <time>2013-08-16T09:06:44.300Z</time>
      </trkpt>
      <trkpt lat="45.53319" lon="6.68826">
        <ele>1730</ele>
        <time>2013-08-16T09:07:16.310Z</time>
      </trkpt>
      <trkpt lat="45.53316" lon="6.68806">
        <ele>1728.88</ele>
        <time>2013-08-16T09:07:24.400Z</time>
      </trkpt>
      <trkpt lat="45.53334" lon="6.68805">
        <ele>1717.25000192</ele>
        <time>2013-08-16T09:07:41.300Z</time>
      </trkpt>
      <trkpt lat="45.53349" lon="6.68795">
        <ele>1709.1959775852</ele>
        <time>2013-08-16T09:08:04.430Z</time>
      </trkpt>
      <trkpt lat="45.53366" lon="6.68803">
        <ele>1705.36200192</ele>
        <time>2013-08-16T09:08:11.530Z</time>
      </trkpt>
      <trkpt lat="45.53384" lon="6.68808">
        <ele>1701.82199808</ele>
        <time>2013-08-16T09:08:17.430Z</time>
      </trkpt>
      <trkpt lat="45.53403" lon="6.68816">
        <ele>1696.98900224</ele>
        <time>2013-08-16T09:08:24.530Z</time>
      </trkpt>
      <trkpt lat="45.53412" lon="6.68797">
        <ele>1689.8</ele>
        <time>2013-08-16T09:08:39.200Z</time>
      </trkpt>
      <trkpt lat="45.53427" lon="6.68805">
        <ele>1686.3</ele>
        <time>2013-08-16T09:08:46.200Z</time>
      </trkpt>
      <trkpt lat="45.53441" lon="6.68817">
        <ele>1683.6350016</ele>
        <time>2013-08-16T09:08:51.530Z</time>
      </trkpt>
      <trkpt lat="45.53446" lon="6.68839">
        <ele>1680.6350016</ele>
        <time>2013-08-16T09:08:57.530Z</time>
      </trkpt>
      <trkpt lat="45.53454" lon="6.68861">
        <ele>1677.1350016</ele>
        <time>2013-08-16T09:09:04.530Z</time>
      </trkpt>
      <trkpt lat="45.5347" lon="6.68877">
        <ele>1673.224</ele>
        <time>2013-08-16T09:09:13.240Z</time>
      </trkpt>
      <trkpt lat="45.53484" lon="6.68895">
        <ele>1670.25000192</ele>
        <time>2013-08-16T09:09:21.300Z</time>
      </trkpt>
      <trkpt lat="45.535" lon="6.68911">
        <ele>1666.7350016</ele>
        <time>2013-08-16T09:09:31.330Z</time>
      </trkpt>
      <trkpt lat="45.53515" lon="6.68922">
        <ele>1664.1849984</ele>
        <time>2013-08-16T09:09:36.430Z</time>
      </trkpt>
      <trkpt lat="45.53527" lon="6.68925">
        <ele>1662.912</ele>
        <time>2013-08-16T09:09:39.240Z</time>
      </trkpt>
      <trkpt lat="45.53536" lon="6.68926">
        <ele>1662.312</ele>
        <time>2013-08-16T09:09:42.240Z</time>
      </trkpt>
      <trkpt lat="45.53544" lon="6.68928">
        <ele>1661.712</ele>
        <time>2013-08-16T09:09:45.240Z</time>
      </trkpt>
      <trkpt lat="45.53554" lon="6.68933">
        <ele>1660.95000064</ele>
        <time>2013-08-16T09:09:49.300Z</time>
      </trkpt>
      <trkpt lat="45.53563" lon="6.68928">
        <ele>1658.22900224</ele>
        <time>2013-08-16T09:10:01.330Z</time>
      </trkpt>
      <trkpt lat="45.53583" lon="6.68932">
        <ele>1651.14799872</ele>
        <time>2013-08-16T09:10:13.430Z</time>
      </trkpt>
      <trkpt lat="45.53599" lon="6.68943">
        <ele>1648.87399936</ele>
        <time>2013-08-16T09:10:19.430Z</time>
      </trkpt>
      <trkpt lat="45.53618" lon="6.68954">
        <ele>1647.67399936</ele>
        <time>2013-08-16T09:10:25.430Z</time>
      </trkpt>
      <trkpt lat="45.53637" lon="6.6896">
        <ele>1646.25000192</ele>
        <time>2013-08-16T09:10:31.300Z</time>
      </trkpt>
      <trkpt lat="45.53656" lon="6.68955">
        <ele>1643.2388073198</ele>
        <time>2013-08-16T09:10:40.330Z</time>
      </trkpt>
      <trkpt lat="45.53674" lon="6.68952">
        <ele>1639.7064647026</ele>
        <time>2013-08-16T09:10:47.430Z</time>
      </trkpt>
      <trkpt lat="45.53691" lon="6.68943">
        <ele>1635.8623080644</ele>
        <time>2013-08-16T09:10:53.310Z</time>
      </trkpt>
      <trkpt lat="45.53709" lon="6.68938">
        <ele>1631.67599616</ele>
        <time>2013-08-16T09:10:59.340Z</time>
      </trkpt>
      <trkpt lat="45.53727" lon="6.68927">
        <ele>1626.90000384</ele>
        <time>2013-08-16T09:11:07.300Z</time>
      </trkpt>
      <trkpt lat="45.53746" lon="6.68914">
        <ele>1623.30800128</ele>
        <time>2013-08-16T09:11:15.530Z</time>
      </trkpt>
      <trkpt lat="45.53765" lon="6.68905">
        <ele>1620.09999872</ele>
        <time>2013-08-16T09:11:28.300Z</time>
      </trkpt>
      <trkpt lat="45.53783" lon="6.68897">
        <ele>1616.6849984</ele>
        <time>2013-08-16T09:11:35.430Z</time>
      </trkpt>
      <trkpt lat="45.53804" lon="6.68893">
        <ele>1612.48</ele>
        <time>2013-08-16T09:11:42.400Z</time>
      </trkpt>
      <trkpt lat="45.53824" lon="6.68894">
        <ele>1606.88</ele>
        <time>2013-08-16T09:11:50.400Z</time>
      </trkpt>
      <trkpt lat="45.53837" lon="6.689">
        <ele>1603.38</ele>
        <time>2013-08-16T09:11:55.400Z</time>
      </trkpt>
      <trkpt lat="45.53846" lon="6.68902">
        <ele>1601.28</ele>
        <time>2013-08-16T09:11:58.400Z</time>
      </trkpt>
      <trkpt lat="45.53859" lon="6.68909">
        <ele>1598.6350016</ele>
        <time>2013-08-16T09:12:03.530Z</time>
      </trkpt>
      <trkpt lat="45.53874" lon="6.68922">
        <ele>1595.92700032</ele>
        <time>2013-08-16T09:12:09.530Z</time>
      </trkpt>
      <trkpt lat="45.53889" lon="6.68935">
        <ele>1595.42700032</ele>
        <time>2013-08-16T09:12:14.530Z</time>
      </trkpt>
      <trkpt lat="45.53894" lon="6.68912">
        <ele>1588</ele>
        <time>2013-08-16T09:12:48.430Z</time>
      </trkpt>
      <trkpt lat="45.53885" lon="6.68888">
        <ele>1586.2700032</ele>
        <time>2013-08-16T09:12:59.530Z</time>
      </trkpt>
      <trkpt lat="45.53872" lon="6.68866">
        <ele>1578.2700032</ele>
        <time>2013-08-16T09:13:07.530Z</time>
      </trkpt>
      <trkpt lat="45.5386" lon="6.68847">
        <ele>1574.74799872</ele>
        <time>2013-08-16T09:13:14.430Z</time>
      </trkpt>
      <trkpt lat="45.53846" lon="6.68832">
        <ele>1572.2499968</ele>
        <time>2013-08-16T09:13:20.300Z</time>
      </trkpt>
      <trkpt lat="45.53828" lon="6.68823">
        <ele>1569.2499968</ele>
        <time>2013-08-16T09:13:26.300Z</time>
      </trkpt>
      <trkpt lat="45.53809" lon="6.68814">
        <ele>1565.7345262975</ele>
        <time>2013-08-16T09:13:33.340Z</time>
      </trkpt>
      <trkpt lat="45.53791" lon="6.68806">
        <ele>1561.1913791157</ele>
        <time>2013-08-16T09:13:42.430Z</time>
      </trkpt>
      <trkpt lat="45.53777" lon="6.68789">
        <ele>1556.72</ele>
        <time>2013-08-16T09:13:50.400Z</time>
      </trkpt>
      <trkpt lat="45.53764" lon="6.68768">
        <ele>1551.12</ele>
        <time>2013-08-16T09:13:57.400Z</time>
      </trkpt>
      <trkpt lat="45.53754" lon="6.68745">
        <ele>1546.02199808</ele>
        <time>2013-08-16T09:14:05.430Z</time>
      </trkpt>
      <trkpt lat="45.53772" lon="6.68745">
        <ele>1541.71099904</ele>
        <time>2013-08-16T09:14:16.430Z</time>
      </trkpt>
      <trkpt lat="45.53791" lon="6.68743">
        <ele>1536.48200192</ele>
        <time>2013-08-16T09:14:26.330Z</time>
      </trkpt>
      <trkpt lat="45.53813" lon="6.68744">
        <ele>1532.52200448</ele>
        <time>2013-08-16T09:14:32.340Z</time>
      </trkpt>
      <trkpt lat="45.53831" lon="6.68746">
        <ele>1529.02199552</ele>
        <time>2013-08-16T09:14:37.340Z</time>
      </trkpt>
      <trkpt lat="45.53849" lon="6.68747">
        <ele>1524.10800128</ele>
        <time>2013-08-16T09:14:48.530Z</time>
      </trkpt>
      <trkpt lat="45.53867" lon="6.68747">
        <ele>1522.49400064</ele>
        <time>2013-08-16T09:15:11.330Z</time>
      </trkpt>
      <trkpt lat="45.53885" lon="6.68739">
        <ele>1519.31700352</ele>
        <time>2013-08-16T09:15:20.330Z</time>
      </trkpt>
      <trkpt lat="45.53903" lon="6.68735">
        <ele>1511.50699648</ele>
        <time>2013-08-16T09:15:27.430Z</time>
      </trkpt>
      <trkpt lat="45.53921" lon="6.68728">
        <ele>1508.10800128</ele>
        <time>2013-08-16T09:15:33.530Z</time>
      </trkpt>
      <trkpt lat="45.5394" lon="6.68729">
        <ele>1505.51099904</ele>
        <time>2013-08-16T09:15:40.430Z</time>
      </trkpt>
      <trkpt lat="45.53924" lon="6.68713">
        <ele>1499.96</ele>
        <time>2013-08-16T09:15:56.400Z</time>
      </trkpt>
      <trkpt lat="45.53907" lon="6.68708">
        <ele>1496.74799872</ele>
        <time>2013-08-16T09:16:04.430Z</time>
      </trkpt>
      <trkpt lat="45.53887" lon="6.68701">
        <ele>1493.1498482797</ele>
        <time>2013-08-16T09:16:13.430Z</time>
      </trkpt>
      <trkpt lat="45.53873" lon="6.68684">
        <ele>1489.7300780877</ele>
        <time>2013-08-16T09:16:21.360Z</time>
      </trkpt>
      <trkpt lat="45.53891" lon="6.68677">
        <ele>1483.7487444426</ele>
        <time>2013-08-16T09:16:33.330Z</time>
      </trkpt>
      <trkpt lat="45.53909" lon="6.68674">
        <ele>1479.9300718258</ele>
        <time>2013-08-16T09:16:40.330Z</time>
      </trkpt>
      <trkpt lat="45.53904" lon="6.68648">
        <ele>1468.7350016</ele>
        <time>2013-08-16T09:17:05.330Z</time>
      </trkpt>
      <trkpt lat="45.53895" lon="6.68626">
        <ele>1464.34799872</ele>
        <time>2013-08-16T09:17:15.430Z</time>
      </trkpt>
      <trkpt lat="45.53898" lon="6.68605">
        <ele>1460.144</ele>
        <time>2013-08-16T09:17:28.320Z</time>
      </trkpt>
      <trkpt lat="45.53911" lon="6.68586">
        <ele>1453.6350016</ele>
        <time>2013-08-16T09:17:53.530Z</time>
      </trkpt>
      <trkpt lat="45.53921" lon="6.68563">
        <ele>1447.45400064</ele>
        <time>2013-08-16T09:18:11.530Z</time>
      </trkpt>
      <trkpt lat="45.53933" lon="6.68539">
        <ele>1444.36200192</ele>
        <time>2013-08-16T09:18:21.530Z</time>
      </trkpt>
      <trkpt lat="45.53947" lon="6.68528">
        <ele>1441.36200192</ele>
        <time>2013-08-16T09:18:26.530Z</time>
      </trkpt>
      <trkpt lat="45.53951" lon="6.6851">
        <ele>1438.62</ele>
        <time>2013-08-16T09:18:33.400Z</time>
      </trkpt>
      <trkpt lat="45.53966" lon="6.68494">
        <ele>1436.67799552</ele>
        <time>2013-08-16T09:18:49.260Z</time>
      </trkpt>
      <trkpt lat="45.53978" lon="6.68473">
        <ele>1429.08200192</ele>
        <time>2013-08-16T09:19:00.330Z</time>
      </trkpt>
      <trkpt lat="45.53985" lon="6.68455">
        <ele>1423.5179647221</ele>
        <time>2013-08-16T09:19:10.410Z</time>
      </trkpt>
      <trkpt lat="45.53999" lon="6.68448">
        <ele>1420.354705985</ele>
        <time>2013-08-16T09:19:20.430Z</time>
      </trkpt>
      <trkpt lat="45.54003" lon="6.68432">
        <ele>1416.44</ele>
        <time>2013-08-16T09:19:34.400Z</time>
      </trkpt>
      <trkpt lat="45.54014" lon="6.68427">
        <ele>1413.6950016</ele>
        <time>2013-08-16T09:19:43.410Z</time>
      </trkpt>
      <trkpt lat="45.54028" lon="6.68421">
        <ele>1408.6849984</ele>
        <time>2013-08-16T09:19:53.430Z</time>
      </trkpt>
      <trkpt lat="45.54044" lon="6.68422">
        <ele>1400.93299712</ele>
        <time>2013-08-16T09:20:04.430Z</time>
      </trkpt>
      <trkpt lat="45.5406" lon="6.6843">
        <ele>1395.2499968</ele>
        <time>2013-08-16T09:20:12.300Z</time>
      </trkpt>
      <trkpt lat="45.54065" lon="6.68406">
        <ele>1381.65899776</ele>
        <time>2013-08-16T09:20:36.430Z</time>
      </trkpt>
      <trkpt lat="45.54081" lon="6.68394">
        <ele>1374.7299968</ele>
        <time>2013-08-16T09:21:09.340Z</time>
      </trkpt>
      <trkpt lat="45.541" lon="6.68398">
        <ele>1369.62199808</ele>
        <time>2013-08-16T09:21:19.430Z</time>
      </trkpt>
      <trkpt lat="45.54094" lon="6.68373">
        <ele>1357.10800128</ele>
        <time>2013-08-16T09:21:48.530Z</time>
      </trkpt>
      <trkpt lat="45.54107" lon="6.68353">
        <ele>1347.9547742055</ele>
        <time>2013-08-16T09:22:09.300Z</time>
      </trkpt>
      <trkpt lat="45.54122" lon="6.68337">
        <ele>1336.54100096</ele>
        <time>2013-08-16T09:22:40.330Z</time>
      </trkpt>
      <trkpt lat="45.5411" lon="6.68315">
        <ele>1333.94700032</ele>
        <time>2013-08-16T09:22:49.330Z</time>
      </trkpt>
      <trkpt lat="45.54117" lon="6.68291">
        <ele>1328.1100032</ele>
        <time>2013-08-16T09:23:08.580Z</time>
      </trkpt>
      <trkpt lat="45.54107" lon="6.68268">
        <ele>1321.64</ele>
        <time>2013-08-16T09:23:32.400Z</time>
      </trkpt>
      <trkpt lat="45.54106" lon="6.68239">
        <ele>1314.1858110484</ele>
        <time>2013-08-16T09:24:03.340Z</time>
      </trkpt>
      <trkpt lat="45.54125" lon="6.68237">
        <ele>1306.94799872</ele>
        <time>2013-08-16T09:24:21.430Z</time>
      </trkpt>
      <trkpt lat="45.54144" lon="6.68245">
        <ele>1303.29200128</ele>
        <time>2013-08-16T09:24:32.340Z</time>
      </trkpt>
      <trkpt lat="45.5416" lon="6.68258">
        <ele>1301.63699968</ele>
        <time>2013-08-16T09:24:42.430Z</time>
      </trkpt>
      <trkpt lat="45.54166" lon="6.68233">
        <ele>1285.74799872</ele>
        <time>2013-08-16T09:25:24.430Z</time>
      </trkpt>
      <trkpt lat="45.54156" lon="6.6821">
        <ele>1282.58100096</ele>
        <time>2013-08-16T09:25:33.530Z</time>
      </trkpt>
      <trkpt lat="45.54141" lon="6.68192">
        <ele>1280.75000064</ele>
        <time>2013-08-16T09:25:41.300Z</time>
      </trkpt>
      <trkpt lat="45.54128" lon="6.68171">
        <ele>1278.860137258</ele>
        <time>2013-08-16T09:25:50.430Z</time>
      </trkpt>
      <trkpt lat="45.5415" lon="6.68176">
        <ele>1269.2462442455</ele>
        <time>2013-08-16T09:26:06.310Z</time>
      </trkpt>
      <trkpt lat="45.54164" lon="6.68187">
        <ele>1267.544</ele>
        <time>2013-08-16T09:26:10.320Z</time>
      </trkpt>
      <trkpt lat="45.54182" lon="6.682">
        <ele>1265.744</ele>
        <time>2013-08-16T09:26:16.320Z</time>
      </trkpt>
      <trkpt lat="45.54195" lon="6.68201">
        <ele>1263.2</ele>
        <time>2013-08-16T09:26:22.400Z</time>
      </trkpt>
      <trkpt lat="45.54209" lon="6.68196">
        <ele>1258.49999872</ele>
        <time>2013-08-16T09:26:36.300Z</time>
      </trkpt>
      <trkpt lat="45.54224" lon="6.68185">
        <ele>1254.14799872</ele>
        <time>2013-08-16T09:26:48.430Z</time>
      </trkpt>
      <trkpt lat="45.54213" lon="6.68163">
        <ele>1251.05100032</ele>
        <time>2013-08-16T09:27:08.290Z</time>
      </trkpt>
      <trkpt lat="45.5423" lon="6.68156">
        <ele>1244.088</ele>
        <time>2013-08-16T09:27:23.360Z</time>
      </trkpt>
      <trkpt lat="45.54249" lon="6.68152">
        <ele>1241.1350016</ele>
        <time>2013-08-16T09:27:32.530Z</time>
      </trkpt>
      <trkpt lat="45.54268" lon="6.68148">
        <ele>1236.2089546536</ele>
        <time>2013-08-16T09:27:42.400Z</time>
      </trkpt>
      <trkpt lat="45.54287" lon="6.68146">
        <ele>1231.9728601494</ele>
        <time>2013-08-16T09:27:50.310Z</time>
      </trkpt>
      <trkpt lat="45.54305" lon="6.68143">
        <ele>1226.344721256</ele>
        <time>2013-08-16T09:27:58.310Z</time>
      </trkpt>
      <trkpt lat="45.54321" lon="6.68147">
        <ele>1225.43699968</ele>
        <time>2013-08-16T09:28:04.430Z</time>
      </trkpt>
      <trkpt lat="45.54337" lon="6.68154">
        <ele>1225</ele>
        <time>2013-08-16T09:28:09.330Z</time>
      </trkpt>
      <trkpt lat="45.54356" lon="6.68155">
        <ele>1225</ele>
        <time>2013-08-16T09:28:17.330Z</time>
      </trkpt>
      <trkpt lat="45.5437" lon="6.68152">
        <ele>1220.49599744</ele>
        <time>2013-08-16T09:28:24.430Z</time>
      </trkpt>
      <trkpt lat="45.54379" lon="6.68151">
        <ele>1217.29599744</ele>
        <time>2013-08-16T09:28:28.430Z</time>
      </trkpt>
      <trkpt lat="45.54399" lon="6.68148">
        <ele>1210.09599744</ele>
        <time>2013-08-16T09:28:37.430Z</time>
      </trkpt>
      <trkpt lat="45.54416" lon="6.6815">
        <ele>1205.616</ele>
        <time>2013-08-16T09:28:44.440Z</time>
      </trkpt>
      <trkpt lat="45.5443" lon="6.68153">
        <ele>1202.62199808</ele>
        <time>2013-08-16T09:28:49.430Z</time>
      </trkpt>
      <trkpt lat="45.54444" lon="6.68158">
        <ele>1199.56200192</ele>
        <time>2013-08-16T09:28:54.530Z</time>
      </trkpt>
      <trkpt lat="45.5446" lon="6.6816">
        <ele>1194.89599744</ele>
        <time>2013-08-16T09:29:01.430Z</time>
      </trkpt>
      <trkpt lat="45.54475" lon="6.68162">
        <ele>1190.09599744</ele>
        <time>2013-08-16T09:29:07.430Z</time>
      </trkpt>
      <trkpt lat="45.54493" lon="6.68166">
        <ele>1183.61600256</ele>
        <time>2013-08-16T09:29:15.530Z</time>
      </trkpt>
      <trkpt lat="45.5451" lon="6.68166">
        <ele>1178.7649984</ele>
        <time>2013-08-16T09:29:23.270Z</time>
      </trkpt>
      <trkpt lat="45.54528" lon="6.68169">
        <ele>1173.6849984</ele>
        <time>2013-08-16T09:29:33.430Z</time>
      </trkpt>
      <trkpt lat="45.54519" lon="6.68144">
        <ele>1169.08</ele>
        <time>2013-08-16T09:29:48.400Z</time>
      </trkpt>
      <trkpt lat="45.54506" lon="6.68122">
        <ele>1166.34799872</ele>
        <time>2013-08-16T09:29:55.430Z</time>
      </trkpt>
      <trkpt lat="45.5449" lon="6.68106">
        <ele>1164.64</ele>
        <time>2013-08-16T09:30:02.400Z</time>
      </trkpt>
      <trkpt lat="45.54472" lon="6.68094">
        <ele>1164.52600064</ele>
        <time>2013-08-16T09:30:11.430Z</time>
      </trkpt>
      <trkpt lat="45.5446" lon="6.68079">
        <ele>1165.90599936</ele>
        <time>2013-08-16T09:30:18.330Z</time>
      </trkpt>
      <trkpt lat="45.54448" lon="6.68057">
        <ele>1166</ele>
        <time>2013-08-16T09:30:25.430Z</time>
      </trkpt>
      <trkpt lat="45.54432" lon="6.68044">
        <ele>1166</ele>
        <time>2013-08-16T09:30:31.430Z</time>
      </trkpt>
      <trkpt lat="45.54412" lon="6.68036">
        <ele>1166</ele>
        <time>2013-08-16T09:30:40.430Z</time>
      </trkpt>
      <trkpt lat="45.54395" lon="6.68026">
        <ele>1166</ele>
        <time>2013-08-16T09:30:47.530Z</time>
      </trkpt>
      <trkpt lat="45.5438" lon="6.68012">
        <ele>1164.6960474339</ele>
        <time>2013-08-16T09:31:10.430Z</time>
      </trkpt>
      <trkpt lat="45.54366" lon="6.68002">
        <ele>1163.074973998</ele>
        <time>2013-08-16T09:31:18.430Z</time>
      </trkpt>
      <trkpt lat="45.54354" lon="6.67985">
        <ele>1159.1849984</ele>
        <time>2013-08-16T09:31:26.430Z</time>
      </trkpt>
      <trkpt lat="45.54345" lon="6.67974">
        <ele>1154.05899776</ele>
        <time>2013-08-16T09:31:34.430Z</time>
      </trkpt>
      <trkpt lat="45.54327" lon="6.67965">
        <ele>1149.87399936</ele>
        <time>2013-08-16T09:31:44.430Z</time>
      </trkpt>
      <trkpt lat="45.54332" lon="6.67943">
        <ele>1147.54700032</ele>
        <time>2013-08-16T09:32:03.330Z</time>
      </trkpt>
      <trkpt lat="45.54347" lon="6.67925">
        <ele>1146.10000128</ele>
        <time>2013-08-16T09:32:13.300Z</time>
      </trkpt>
      <trkpt lat="45.54363" lon="6.6791">
        <ele>1141.75899776</ele>
        <time>2013-08-16T09:32:23.430Z</time>
      </trkpt>
      <trkpt lat="45.54372" lon="6.67885">
        <ele>1136.30000128</ele>
        <time>2013-08-16T09:32:37.300Z</time>
      </trkpt>
      <trkpt lat="45.5439" lon="6.67878">
        <ele>1135.23699968</ele>
        <time>2013-08-16T09:32:56.430Z</time>
      </trkpt>
      <trkpt lat="45.54406" lon="6.67866">
        <ele>1129.35000064</ele>
        <time>2013-08-16T09:33:15.300Z</time>
      </trkpt>
      <trkpt lat="45.54419" lon="6.67845">
        <ele>1124.05899776</ele>
        <time>2013-08-16T09:33:44.430Z</time>
      </trkpt>
      <trkpt lat="45.54436" lon="6.67833">
        <ele>1118.39599872</ele>
        <time>2013-08-16T09:33:55.310Z</time>
      </trkpt>
      <trkpt lat="45.54453" lon="6.67824">
        <ele>1115.20000256</ele>
        <time>2013-08-16T09:34:03.300Z</time>
      </trkpt>
      <trkpt lat="45.54473" lon="6.67819">
        <ele>1113</ele>
        <time>2013-08-16T09:34:10.430Z</time>
      </trkpt>
      <trkpt lat="45.5449" lon="6.67812">
        <ele>1113</ele>
        <time>2013-08-16T09:34:14.430Z</time>
      </trkpt>
      <trkpt lat="45.54506" lon="6.67797">
        <ele>1110.4700032</ele>
        <time>2013-08-16T09:34:21.330Z</time>
      </trkpt>
      <trkpt lat="45.54522" lon="6.67778">
        <ele>1102.55000576</ele>
        <time>2013-08-16T09:34:29.300Z</time>
      </trkpt>
      <trkpt lat="45.54538" lon="6.67761">
        <ele>1096.16</ele>
        <time>2013-08-16T09:34:36.400Z</time>
      </trkpt>
      <trkpt lat="45.54554" lon="6.67747">
        <ele>1089.51200256</ele>
        <time>2013-08-16T09:34:44.410Z</time>
      </trkpt>
      <trkpt lat="45.54571" lon="6.67754">
        <ele>1084.56399872</ele>
        <time>2013-08-16T09:34:52.390Z</time>
      </trkpt>
      <trkpt lat="45.54563" lon="6.67778">
        <ele>1080.7350016</ele>
        <time>2013-08-16T09:35:01.330Z</time>
      </trkpt>
      <trkpt lat="45.54583" lon="6.67781">
        <ele>1061.1849984</ele>
        <time>2013-08-16T09:35:44.430Z</time>
      </trkpt>
      <trkpt lat="45.54602" lon="6.67773">
        <ele>1057.91099904</ele>
        <time>2013-08-16T09:35:52.430Z</time>
      </trkpt>
      <trkpt lat="45.5462" lon="6.67765">
        <ele>1055.7500032</ele>
        <time>2013-08-16T09:35:59.300Z</time>
      </trkpt>
      <trkpt lat="45.54638" lon="6.67751">
        <ele>1050.6417909307</ele>
        <time>2013-08-16T09:36:09.400Z</time>
      </trkpt>
      <trkpt lat="45.54657" lon="6.67746">
        <ele>1045.865670007</ele>
        <time>2013-08-16T09:36:17.400Z</time>
      </trkpt>
      <trkpt lat="45.54676" lon="6.67737">
        <ele>1042.8211036555</ele>
        <time>2013-08-16T09:36:24.270Z</time>
      </trkpt>
      <trkpt lat="45.54692" lon="6.67722">
        <ele>1038.3699968</ele>
        <time>2013-08-16T09:36:31.430Z</time>
      </trkpt>
      <trkpt lat="45.54709" lon="6.6771">
        <ele>1030.7350016</ele>
        <time>2013-08-16T09:36:39.330Z</time>
      </trkpt>
      <trkpt lat="45.5472" lon="6.67687">
        <ele>1024.01099904</ele>
        <time>2013-08-16T09:36:55.430Z</time>
      </trkpt>
      <trkpt lat="45.5471" lon="6.67666">
        <ele>1020.1849984</ele>
        <time>2013-08-16T09:37:04.430Z</time>
      </trkpt>
      <trkpt lat="45.547" lon="6.67642">
        <ele>1016.976</ele>
        <time>2013-08-16T09:37:11.360Z</time>
      </trkpt>
      <trkpt lat="45.54689" lon="6.67621">
        <ele>1013.6849984</ele>
        <time>2013-08-16T09:37:19.430Z</time>
      </trkpt>
      <trkpt lat="45.54705" lon="6.67608">
        <ele>1002.81600256</ele>
        <time>2013-08-16T09:37:36.530Z</time>
      </trkpt>
      <trkpt lat="45.54722" lon="6.67597">
        <ele>999.10800128</ele>
        <time>2013-08-16T09:37:43.530Z</time>
      </trkpt>
      <trkpt lat="45.54742" lon="6.67596">
        <ele>994.92</ele>
        <time>2013-08-16T09:37:51.400Z</time>
      </trkpt>
      <trkpt lat="45.54761" lon="6.67593">
        <ele>988.87099904</ele>
        <time>2013-08-16T09:37:59.230Z</time>
      </trkpt>
      <trkpt lat="45.5478" lon="6.67587">
        <ele>985.83699968</ele>
        <time>2013-08-16T09:38:10.430Z</time>
      </trkpt>
      <trkpt lat="45.54798" lon="6.67577">
        <ele>984.55899776</ele>
        <time>2013-08-16T09:38:19.430Z</time>
      </trkpt>
      <trkpt lat="45.54817" lon="6.67574">
        <ele>977.1849984</ele>
        <time>2013-08-16T09:38:30.430Z</time>
      </trkpt>
      <trkpt lat="45.54835" lon="6.6757">
        <ele>972.38800128</ele>
        <time>2013-08-16T09:38:40.330Z</time>
      </trkpt>
      <trkpt lat="45.54854" lon="6.67566">
        <ele>968.78399744</ele>
        <time>2013-08-16T09:38:49.340Z</time>
      </trkpt>
      <trkpt lat="45.54872" lon="6.67562">
        <ele>965.144</ele>
        <time>2013-08-16T09:38:58.440Z</time>
      </trkpt>
      <trkpt lat="45.54891" lon="6.67561">
        <ele>961.6990971953</ele>
        <time>2013-08-16T09:39:09.430Z</time>
      </trkpt>
      <trkpt lat="45.54907" lon="6.67546">
        <ele>957.68705979926</ele>
        <time>2013-08-16T09:39:17.430Z</time>
      </trkpt>
      <trkpt lat="45.54922" lon="6.67526">
        <ele>953.6849984</ele>
        <time>2013-08-16T09:39:25.430Z</time>
      </trkpt>
      <trkpt lat="45.54933" lon="6.67505">
        <ele>949.29399808</ele>
        <time>2013-08-16T09:39:33.310Z</time>
      </trkpt>
      <trkpt lat="45.5495" lon="6.6751">
        <ele>941.6849984</ele>
        <time>2013-08-16T09:39:47.430Z</time>
      </trkpt>
      <trkpt lat="45.54954" lon="6.67538">
        <ele>936.18980705368</ele>
        <time>2013-08-16T09:39:58.430Z</time>
      </trkpt>
      <trkpt lat="45.54945" lon="6.67562">
        <ele>932.1041015082</ele>
        <time>2013-08-16T09:40:08.540Z</time>
      </trkpt>
      <trkpt lat="45.54933" lon="6.6758">
        <ele>927.36200192</ele>
        <time>2013-08-16T09:40:16.530Z</time>
      </trkpt>
      <trkpt lat="45.54942" lon="6.67557">
        <ele>913.55899776</ele>
        <time>2013-08-16T09:40:39.430Z</time>
      </trkpt>
      <trkpt lat="45.54957" lon="6.67543">
        <ele>906.73699968</ele>
        <time>2013-08-16T09:40:51.430Z</time>
      </trkpt>
      <trkpt lat="45.54975" lon="6.67537">
        <ele>905.08</ele>
        <time>2013-08-16T09:41:13.400Z</time>
      </trkpt>
      <trkpt lat="45.54987" lon="6.67517">
        <ele>898.77800448</ele>
        <time>2013-08-16T09:41:26.260Z</time>
      </trkpt>
      <trkpt lat="45.55001" lon="6.675">
        <ele>893.14799872</ele>
        <time>2013-08-16T09:41:38.430Z</time>
      </trkpt>
      <trkpt lat="45.55019" lon="6.67493">
        <ele>889.1849984</ele>
        <time>2013-08-16T09:41:46.430Z</time>
      </trkpt>
      <trkpt lat="45.55037" lon="6.67478">
        <ele>886.64477377744</ele>
        <time>2013-08-16T09:41:53.340Z</time>
      </trkpt>
      <trkpt lat="45.55052" lon="6.67464">
        <ele>883.60100547505</ele>
        <time>2013-08-16T09:42:02.330Z</time>
      </trkpt>
      <trkpt lat="45.55073" lon="6.67463">
        <ele>880.67399936</ele>
        <time>2013-08-16T09:42:10.430Z</time>
      </trkpt>
      <trkpt lat="45.55092" lon="6.67461">
        <ele>879.47399936</ele>
        <time>2013-08-16T09:42:16.430Z</time>
      </trkpt>
      <trkpt lat="45.55109" lon="6.67463">
        <ele>878.84615443633</ele>
        <time>2013-08-16T09:42:20.340Z</time>
      </trkpt>
      <trkpt lat="45.55123" lon="6.67463">
        <ele>878.34665249843</ele>
        <time>2013-08-16T09:42:25.340Z</time>
      </trkpt>
      <trkpt lat="45.55133" lon="6.67465">
        <ele>877.62762390306</ele>
        <time>2013-08-16T09:42:29.430Z</time>
      </trkpt>
      <trkpt lat="45.55144" lon="6.67469">
        <ele>875.2252222702</ele>
        <time>2013-08-16T09:42:33.430Z</time>
      </trkpt>
      <trkpt lat="45.55155" lon="6.67472">
        <ele>872.82282063733</ele>
        <time>2013-08-16T09:42:37.430Z</time>
      </trkpt>
      <trkpt lat="45.55167" lon="6.6748">
        <ele>871.21099904</ele>
        <time>2013-08-16T09:42:41.430Z</time>
      </trkpt>
      <trkpt lat="45.55179" lon="6.67483">
        <ele>870.01099904</ele>
        <time>2013-08-16T09:42:45.430Z</time>
      </trkpt>
      <trkpt lat="45.55198" lon="6.67486">
        <ele>868.64635417266</ele>
        <time>2013-08-16T09:42:52.340Z</time>
      </trkpt>
      <trkpt lat="45.55214" lon="6.67485">
        <ele>868.04695338164</ele>
        <time>2013-08-16T09:42:58.340Z</time>
      </trkpt>
      <trkpt lat="45.55228" lon="6.67485">
        <ele>864.22022143096</ele>
        <time>2013-08-16T09:43:03.530Z</time>
      </trkpt>
      <trkpt lat="45.55244" lon="6.67499">
        <ele>860.20820301639</ele>
        <time>2013-08-16T09:43:08.540Z</time>
      </trkpt>
      <trkpt lat="45.55255" lon="6.67513">
        <ele>860</ele>
        <time>2013-08-16T09:43:13.530Z</time>
      </trkpt>
      <trkpt lat="45.55268" lon="6.67514">
        <ele>859.66801105385</ele>
        <time>2013-08-16T09:43:19.530Z</time>
      </trkpt>
      <trkpt lat="45.5528" lon="6.67511">
        <ele>857.15291889121</ele>
        <time>2013-08-16T09:43:24.530Z</time>
      </trkpt>
      <trkpt lat="45.55294" lon="6.67508">
        <ele>854.92792795101</ele>
        <time>2013-08-16T09:43:29.530Z</time>
      </trkpt>
      <trkpt lat="45.55313" lon="6.67504">
        <ele>854.22722747476</ele>
        <time>2013-08-16T09:43:36.530Z</time>
      </trkpt>
      <trkpt lat="45.55324" lon="6.67522">
        <ele>853.25400064</ele>
        <time>2013-08-16T09:43:42.530Z</time>
      </trkpt>
      <trkpt lat="45.55333" lon="6.67529">
        <ele>852.45400064</ele>
        <time>2013-08-16T09:43:46.530Z</time>
      </trkpt>
      <trkpt lat="45.55344" lon="6.67533">
        <ele>851.68</ele>
        <time>2013-08-16T09:43:50.400Z</time>
      </trkpt>
      <trkpt lat="45.55361" lon="6.67543">
        <ele>850.08</ele>
        <time>2013-08-16T09:43:58.400Z</time>
      </trkpt>
      <trkpt lat="45.55377" lon="6.67557">
        <ele>847.71029025704</ele>
        <time>2013-08-16T09:44:04.530Z</time>
      </trkpt>
      <trkpt lat="45.55393" lon="6.67573">
        <ele>846</ele>
        <time>2013-08-16T09:44:11.300Z</time>
      </trkpt>
      <trkpt lat="45.55404" lon="6.67588">
        <ele>846</ele>
        <time>2013-08-16T09:44:17.300Z</time>
      </trkpt>
      <trkpt lat="45.55417" lon="6.67608">
        <ele>843.74799872</ele>
        <time>2013-08-16T09:44:24.430Z</time>
      </trkpt>
      <trkpt lat="45.55426" lon="6.67631">
        <ele>841.83699968</ele>
        <time>2013-08-16T09:44:30.430Z</time>
      </trkpt>
      <trkpt lat="45.55432" lon="6.67649">
        <ele>841.23699968</ele>
        <time>2013-08-16T09:44:36.430Z</time>
      </trkpt>
      <trkpt lat="45.55442" lon="6.6767">
        <ele>839.66069672778</ele>
        <time>2013-08-16T09:44:45.530Z</time>
      </trkpt>
      <trkpt lat="45.55435" lon="6.67696">
        <ele>839</ele>
        <time>2013-08-16T09:44:53.330Z</time>
      </trkpt>
      <trkpt lat="45.55427" lon="6.67715">
        <ele>839</ele>
        <time>2013-08-16T09:44:59.430Z</time>
      </trkpt>
      <trkpt lat="45.55427" lon="6.67726">
        <ele>839</ele>
        <time>2013-08-16T09:45:05.730Z</time>
      </trkpt>
    </trkseg>
  </trk>
</gpx>